Return to Metar
METAR CYNL 272300Z AUTO 30008KT 9SM BKN013 BKN017 OVC022 M05/M05 A2939 RMK AO1 PRESRR SLP000
SPECI CYNL 272255Z AUTO 30008KT 3SM BKN013 OVC022 M04/M05 A2939 RMK AO1 PRESRR SLP000
SPECI CYNL 272252Z AUTO 29009KT 2 1/2SM BKN013 OVC021 M04/M05 A2939 RMK AO1 PRESRR SLP999
SPECI CYNL 272237Z AUTO 28007KT 9SM BKN012 OVC016 M05/M05 A2939 RMK AO1 PRESRR SLP999
SPECI CYNL 272236Z AUTO 28007KT 9SM SCT012 OVC016 M05/M05 A2939 RMK AO1 PRESRR SLP999
SPECI CYNL 272235Z AUTO 28007KT 9SM BKN013 OVC016 M05/M05 A2939 RMK AO1 PRESRR SLP998
SPECI CYNL 272234Z AUTO 28007KT 8SM SCT013 OVC016 M05/M05 A2938 RMK AO1 PRESRR SLP998
SPECI CYNL 272233Z AUTO 28007KT 7SM OVC014 M05/M05 A2938 RMK AO1 PRESRR SLP998
SPECI CYNL 272231Z AUTO 28009KT 8SM OVC015 M05/M06 A2938 RMK AO1 PRESRR SLP998
SPECI CYNL 272230Z AUTO 28008KT 7SM BKN014 OVC018 M05/M06 A2938 RMK AO1 PRESRR SLP997
SPECI CYNL 272227Z AUTO 28007KT 4SM SCT013 OVC016 M05/M06 A2938 RMK AO1 PRESRR SLP996
SPECI CYNL 272226Z AUTO 28006KT 2 1/2SM SCT013 OVC016 M05/M06 A2938 RMK AO1 PRESRR SLP995
SPECI CYNL 272225Z AUTO 28006KT 1 1/2SM VV014 M05/M06 A2938 RMK AO1 PRESRR SLP995
SPECI CYNL 272222Z AUTO 28008KT 1SM VV013 M05/M06 A2937 RMK AO1 PRESRR SLP995
SPECI CYNL 272220Z AUTO 27006KT 3/4SM VV014 M05/M06 A2937 RMK AO1 PRESRR SLP994
SPECI CYNL 272218Z AUTO 28007KT 1 1/4SM VV016 M05/M06 A2937 RMK AO1 PRESRR SLP993
SPECI CYNL 272217Z AUTO 27006KT 1 3/4SM VV016 M05/M06 A2937 RMK AO1 PRESRR SLP993
SPECI CYNL 272212Z AUTO 28006KT 2 1/2SM VV017 M05/M06 A2937 RMK AO1 PRESRR SLP992
SPECI CYNL 272211Z AUTO 28005KT 2 1/2SM BKN013 OVC017 M05/M06 A2937 RMK AO1 PRESRR SLP992
METAR CYNL 272200Z AUTO 29006KT 9SM OVC013 M05/M06 A2937 RMK AO1 PRESRR SLP993
METAR CYNL 272100Z AUTO 26008KT 9SM OVC012 M05/M06 A2935 RMK AO1 PRESRR SLP987
METAR CYNL 272000Z AUTO 28008G17KT 9SM OVC012 M04/M05 A2932 RMK AO1 SLP979
METAR CYNL 271900Z AUTO 27008KT 9SM OVC013 M05/M06 A2932 RMK AO1 SLP978
METAR CYNL 271800Z AUTO 25005KT 9SM FEW007 SCT008 OVC010 M09/M10 A2931 RMK AO1 SLP979
SPECI CYNL 271752Z AUTO 23004KT 9SM SCT007 OVC010 M09/M11 A2931 RMK AO1 SLP981
METAR CYNL 271700Z AUTO 00000KT 9SM OVC006 M11/M13 A2931 RMK AO1 SLP984
METAR CYNL 271600Z AUTO 18004KT 9SM OVC007 M12/M15 A2931 RMK AO1 SLP986
SPECI CYNL 271531Z AUTO 17003KT 9SM BKN007 BKN010 OVC013 M13/M15 A2931 RMK AO1 SLP989
SPECI CYNL 271511Z AUTO 16004KT 6SM SCT006 OVC013 M13/M15 A2932 RMK AO1 SLP991
SPECI CYNL 271508Z AUTO 17003KT 4SM VV009 M13/M15 A2932 RMK AO1 SLP991
SPECI CYNL 271506Z AUTO 16004KT 3SM VV010 M13/M15 A2932 RMK AO1 SLP990
SPECI CYNL 271502Z AUTO 17004KT 2SM VV013 M13/M15 A2932 RMK AO1 SLP992
METAR CYNL 271500Z AUTO 17003KT 1 3/4SM VV014 M13/M15 A2932 RMK AO1 SLP992
SPECI CYNL 271458Z AUTO 17003KT 1 3/4SM VV014 M13/M15 A2932 RMK AO1 SLP995
SPECI CYNL 271456Z AUTO 18003KT 2SM VV013 M13/M15 A2932 RMK AO1 SLP996
SPECI CYNL 271454Z AUTO 17004KT 1 1/2SM VV011 M13/M15 A2932 RMK AO1 SLP996
SPECI CYNL 271453Z AUTO 17004KT 1SM VV010 M13/M15 A2932 RMK AO1 SLP996
SPECI CYNL 271452Z AUTO 17004KT 3/4SM VV009 M13/M15 A2932 RMK AO1 SLP995
SPECI CYNL 271445Z AUTO 16004KT 3/8SM VV009 M13/M15 A2932 RMK AO1 SLP994
SPECI CYNL 271444Z AUTO 16005KT 1/2SM VV010 M13/M15 A2932 RMK AO1 SLP994
SPECI CYNL 271443Z AUTO 16005KT 3/4SM VV011 M13/M15 A2932 RMK AO1 SLP994
SPECI CYNL 271435Z AUTO 16005KT 1SM VV012 M13/M15 A2932 RMK AO1 SLP996
SPECI CYNL 271432Z AUTO 17005KT 3/4SM VV011 M13/M15 A2933 RMK AO1 SLP997
SPECI CYNL 271430Z AUTO 17005KT 5/8SM VV011 M13/M15 A2933 RMK AO1 SLP998
SPECI CYNL 271427Z AUTO 16005KT 3/4SM VV011 M13/M15 A2933 RMK AO1 SLP998
SPECI CYNL 271423Z AUTO 17006KT 1 1/4SM VV013 M13/M15 A2933 RMK AO1 SLP998
SPECI CYNL 271420Z AUTO 16006KT 1 1/2SM VV014 M13/M15 A2933 RMK AO1 SLP997
SPECI CYNL 271418Z AUTO 16006KT 1 1/4SM VV014 M13/M15 A2933 RMK AO1 SLP998
SPECI CYNL 271417Z AUTO 17005KT 1 1/4SM VV015 M13/M15 A2933 RMK AO1 SLP998
SPECI CYNL 271415Z AUTO 17005KT 1 3/4SM VV016 M13/M15 A2933 RMK AO1 SLP999
SPECI CYNL 271411Z AUTO 17006KT 2 1/2SM VV017 M13/M15 A2933 RMK AO1 SLP000
SPECI CYNL 271406Z AUTO 18005KT 3SM VV017 M13/M15 A2933 RMK AO1 SLP000
METAR CYNL 271400Z AUTO 17005KT 2SM VV018 M13/M16 A2933 RMK AO1 SLP000
SPECI CYNL 271355Z AUTO 17006KT 2SM VV016 M13/M16 A2934 RMK AO1 PRESFR SLP003
SPECI CYNL 271351Z AUTO 17007KT 1 1/2SM VV015 M13/M16 A2934 RMK AO1 PRESFR SLP004
SPECI CYNL 271347Z AUTO 17005KT 1 1/2SM VV014 M13/M16 A2934 RMK AO1 PRESFR SLP005
SPECI CYNL 271345Z AUTO 17005KT 1 1/4SM VV014 M13/M16 A2934 RMK AO1 PRESFR SLP006
SPECI CYNL 271340Z AUTO 17006KT 1 1/2SM VV016 M13/M16 A2934 RMK AO1 PRESFR SLP006
SPECI CYNL 271337Z AUTO 17005KT 1 1/4SM VV015 M13/M16 A2934 RMK AO1 PRESFR SLP006
SPECI CYNL 271334Z AUTO 17007KT 1 1/2SM VV015 M13/M16 A2934 RMK AO1 PRESFR SLP006
SPECI CYNL 271333Z AUTO 17006KT 1 1/4SM VV016 M13/M16 A2934 RMK AO1 PRESFR SLP006
SPECI CYNL 271328Z AUTO 17006KT 1 1/2SM VV017 M13/M16 A2934 RMK AO1 PRESFR SLP006
SPECI CYNL 271326Z AUTO 17005KT 1 1/4SM VV017 M13/M16 A2934 RMK AO1 PRESFR SLP006
SPECI CYNL 271315Z AUTO 17007KT 1 1/2SM VV020 M13/M16 A2934 RMK AO1 PRESFR SLP005
SPECI CYNL 271312Z AUTO 17007KT 1 1/4SM VV020 M13/M16 A2934 RMK AO1 PRESFR SLP006
SPECI CYNL 271307Z AUTO 17006KT 1 3/4SM VV022 M13/M16 A2934 RMK AO1 PRESFR SLP006
SPECI CYNL 271306Z AUTO 17007KT 2SM VV023 M13/M16 A2934 RMK AO1 PRESFR SLP006
SPECI CYNL 271302Z AUTO 17006KT 1 1/2SM VV021 M13/M16 A2934 RMK AO1 PRESFR SLP006
SPECI CYNL 271301Z AUTO 17007KT 1 1/4SM VV020 M13/M16 A2934 RMK AO1 PRESFR SLP006
METAR CYNL 271300Z AUTO 17007KT 1 1/2SM VV019 M13/M16 A2934 RMK AO1 PRESFR SLP006
SPECI CYNL 271256Z AUTO 16008KT 1 3/4SM VV021 M14/M16 A2934 RMK AO1 PRESFR SLP005
SPECI CYNL 271254Z AUTO 16007KT 2 1/2SM VV024 M14/M16 A2935 RMK AO1 PRESFR SLP006
SPECI CYNL 271253Z AUTO 16008KT 2 1/2SM VV025 M14/M16 A2935 RMK AO1 PRESFR SLP006
SPECI CYNL 271249Z AUTO 17006KT 4SM VV029 M14/M16 A2935 RMK AO1 PRESFR SLP006
SPECI CYNL 271248Z AUTO 16006KT 4SM VV030 M14/M16 A2935 RMK AO1 PRESFR SLP006
SPECI CYNL 271242Z AUTO 17006KT 3SM VV025 M14/M16 A2935 RMK AO1 PRESFR SLP006
SPECI CYNL 271240Z AUTO 16007KT 4SM VV024 M14/M16 A2935 RMK AO1 PRESFR SLP006
SPECI CYNL 271233Z AUTO 16008KT 3SM VV025 M14/M16 A2935 RMK AO1 PRESFR SLP007
SPECI CYNL 271232Z AUTO 16008KT 3SM VV023 M14/M16 A2935 RMK AO1 PRESFR SLP007
SPECI CYNL 271229Z AUTO 16006KT 2SM VV017 M14/M16 A2935 RMK AO1 PRESFR SLP008
SPECI CYNL 271223Z AUTO 16007KT 1 3/4SM VV017 M14/M16 A2935 RMK AO1 PRESFR SLP009
SPECI CYNL 271219Z AUTO 16005KT 2SM VV016 M14/M16 A2936 RMK AO1 PRESFR SLP010
SPECI CYNL 271217Z AUTO 15006KT 1 1/2SM VV015 M14/M16 A2936 RMK AO1 PRESFR SLP010
SPECI CYNL 271212Z AUTO 16005KT 1 1/2SM VV013 M14/M16 A2936 RMK AO1 PRESFR SLP010
SPECI CYNL 271210Z AUTO 16006KT 1 1/4SM VV014 M14/M16 A2936 RMK AO1 PRESFR SLP011
SPECI CYNL 271209Z AUTO 16006KT 1 1/4SM VV015 M14/M16 A2936 RMK AO1 PRESFR SLP011
SPECI CYNL 271208Z AUTO 16006KT 1 1/2SM VV016 M14/M16 A2936 RMK AO1 PRESFR SLP011
METAR CYNL 271200Z AUTO 15006KT 2SM VV017 M14/M17 A2936 RMK AO1 PRESFR SLP013
SPECI CYNL 271149Z AUTO 15006KT 2SM VV021 M14/M17 A2937 RMK AO1 PRESFR SLP013
SPECI CYNL 271146Z AUTO 15007KT 1 3/4SM VV018 M14/M17 A2937 RMK AO1 PRESFR SLP014
SPECI CYNL 271139Z AUTO 16006KT 2 1/2SM VV023 M14/M17 A2938 RMK AO1 PRESFR SLP016
SPECI CYNL 271138Z AUTO 16005KT 3SM VV024 M14/M17 A2938 RMK AO1 PRESFR SLP016
SPECI CYNL 271133Z AUTO 16006KT 2SM VV026 M14/M17 A2938 RMK AO1 PRESFR SLP016
SPECI CYNL 271128Z AUTO 16005KT 2SM VV015 M14/M17 A2939 RMK AO1 PRESFR SLP018
SPECI CYNL 271119Z AUTO 15006KT 2 1/2SM VV014 M15/M17 A2939 RMK AO1 PRESFR SLP018
SPECI CYNL 271116Z AUTO 15008KT 2 1/2SM VV015 M15/M17 A2939 RMK AO1 PRESFR SLP019
METAR CYNL 271100Z AUTO 16006KT 5SM VV020 M15/M17 A2940 RMK AO1 PRESFR SLP022
SPECI CYNL 271033Z AUTO 15007KT 3SM VV018 M15/M18 A2940 RMK AO1 PRESFR SLP024
SPECI CYNL 271025Z AUTO 14008KT 2SM VV015 M15/M18 A2941 RMK AO1 PRESFR SLP026
SPECI CYNL 271024Z AUTO 15009KT 1 3/4SM VV015 M15/M18 A2941 RMK AO1 PRESFR SLP026
SPECI CYNL 271021Z AUTO 14007KT 1 1/2SM VV014 M15/M18 A2941 RMK AO1 PRESFR SLP027
SPECI CYNL 271011Z AUTO 15007KT 1 1/2SM VV015 M15/M18 A2942 RMK AO1 PRESFR SLP029
SPECI CYNL 271010Z AUTO 15007KT 1 1/2SM VV014 M15/M18 A2942 RMK AO1 PRESFR SLP030
SPECI CYNL 271004Z AUTO 16006KT 1SM VV012 M16/M18 A2942 RMK AO1 PRESFR SLP032
SPECI CYNL 271001Z AUTO 15007KT 3/4SM VV014 M16/M18 A2943 RMK AO1 PRESFR SLP033
METAR CYNL 271000Z AUTO 15006KT 1SM VV014 M16/M18 A2943 RMK AO1 PRESFR SLP033
SPECI CYNL 270959Z AUTO 15005KT 1 1/4SM VV015 M16/M18 A2943 RMK AO1 PRESFR SLP032
SPECI CYNL 270958Z AUTO 15005KT 1 1/2SM VV016 M16/M18 A2943 RMK AO1 PRESFR SLP031
SPECI CYNL 270947Z AUTO 14007KT 2SM VV016 M16/M18 A2943 RMK AO1 PRESFR SLP033
SPECI CYNL 270944Z AUTO 13006KT 1 3/4SM VV015 M16/M19 A2943 RMK AO1 PRESFR SLP032
SPECI CYNL 270936Z AUTO 14007KT 2SM VV016 M16/M19 A2944 RMK AO1 PRESFR SLP035
SPECI CYNL 270935Z AUTO 14007KT 1 3/4SM VV015 M16/M19 A2944 RMK AO1 PRESFR SLP035
SPECI CYNL 270933Z AUTO 14006KT 1 1/2SM VV013 M16/M19 A2944 RMK AO1 PRESFR SLP036
SPECI CYNL 270931Z AUTO 14006KT 1SM VV013 M16/M19 A2944 RMK AO1 PRESFR SLP036
SPECI CYNL 270929Z AUTO 15007KT 3/4SM VV012 M16/M19 A2944 RMK AO1 PRESFR SLP037
SPECI CYNL 270927Z AUTO 14006KT 1SM VV014 M16/M19 A2944 RMK AO1 PRESFR SLP037
SPECI CYNL 270923Z AUTO 13006KT 1 1/4SM VV018 M16/M19 A2944 RMK AO1 PRESFR SLP037
SPECI CYNL 270922Z AUTO 14007KT 1 1/2SM VV019 M16/M19 A2944 RMK AO1 PRESFR SLP037
SPECI CYNL 270921Z AUTO 14007KT 2SM VV019 M16/M19 A2945 RMK AO1 PRESFR SLP037
SPECI CYNL 270919Z AUTO 14006KT 3SM VV015 M16/M19 A2944 RMK AO1 PRESFR SLP037
SPECI CYNL 270916Z AUTO 14006KT 5SM VV011 M16/M19 A2944 RMK AO1 PRESFR SLP037
METAR CYNL 270900Z AUTO 14006KT 4SM VV006 M16/M19 A2945 RMK AO1 PRESFR SLP040
SPECI CYNL 270852Z AUTO 14006KT 3SM VV008 M16/M19 A2946 RMK AO1 PRESFR SLP041
SPECI CYNL 270851Z AUTO 13007KT 2 1/2SM VV009 M16/M19 A2946 RMK AO1 PRESFR SLP041
SPECI CYNL 270850Z AUTO 14006KT 2 1/2SM VV010 M16/M19 A2946 RMK AO1 PRESFR SLP041
SPECI CYNL 270849Z AUTO 14006KT 3SM VV012 M16/M19 A2946 RMK AO1 PRESFR SLP042
SPECI CYNL 270844Z AUTO 14006KT 6SM VV023 M16/M19 A2946 RMK AO1 PRESFR SLP042
METAR CYNL 270800Z AUTO 12004KT 9SM CLR M17/M20 A2948 RMK AO1 PRESFR SLP049
METAR CYNL 270700Z AUTO 15007KT 9SM FEW160 M17/M20 A2952 RMK AO1 PRESFR SLP062
METAR CYNL 270600Z AUTO 16005KT 9SM SCT120 M18/M21 A2956 RMK AO1 PRESFR SLP076
METAR CYNL 270500Z AUTO 17002KT 9SM SCT006 M18/M21 A2960 RMK AO1 SLP090
SPECI CYNL 270455Z AUTO 17003KT 9SM SCT006 M18/M21 A2960 RMK AO1 PRESFR SLP091
METAR CYNL 270400Z AUTO 00000KT 9SM OVC007 M20/M23 A2962 RMK AO1 PRESFR SLP098
SPECI CYNL 270305Z AUTO 24005KT 9SM OVC005 M22/M25 A2964 RMK AO1 SLP107
METAR CYNL 270300Z AUTO 24004KT 9SM OVC004 M22/M25 A2964 RMK AO1 SLP108
SPECI CYNL 270213Z AUTO 25002KT 9SM BKN003 BKN005 M24/M27 A2964 RMK AO1 PRESFR SLP111
SPECI CYNL 270206Z AUTO 25002KT 9SM SCT003 BKN005 M24/M27 A2965 RMK AO1 PRESFR SLP112
SPECI CYNL 270201Z AUTO 00000KT 9SM BKN004 M24/M27 A2965 RMK AO1 PRESFR SLP113
METAR CYNL 270200Z AUTO 00000KT 9SM FEW003 BKN005 M24/M27 A2965 RMK AO1 PRESFR SLP114
SPECI CYNL 270159Z AUTO 28002KT 9SM SCT004 BKN007 M24/M27 A2965 RMK AO1 PRESFR SLP113
SPECI CYNL 270148Z AUTO 27004KT 9SM FEW007 M24/M27 A2966 RMK AO1 SLP114
METAR CYNL 270100Z AUTO ///// 9SM CLR M23/M26 A2967 RMK AO1 SLP118
METAR CYNL 270000Z AUTO 25003KT 9SM CLR M21/M24 A2969 RMK AO1 SLP120
METAR CYNL 262300Z AUTO 26004KT 9SM CLR M20/M23 A2969 RMK AO1 SLP121
METAR CYNL 262200Z AUTO ///// 9SM CLR M18/M21 A2967 RMK AO1 SLP111
METAR CYNL 262100Z AUTO 29008KT 9SM CLR M17/M20 A2968 RMK AO1 SLP112
METAR CYNL 262000Z AUTO ///// 9SM SCT012 M17/M20 A2966 RMK AO1 SLP105
SPECI CYNL 261959Z AUTO ///// 9SM SCT012 M17/M19 A2966 RMK AO1 SLP105
METAR CYNL 261900Z AUTO ///// 6SM OVC011 M17/M19 A2965 RMK AO1 SLP100
METAR CYNL 261800Z AUTO ///// 7SM OVC012 M16/M19 A2963 RMK AO1 SLP095
METAR CYNL 261700Z AUTO ///// 4SM BKN011 OVC014 M16/M18 A2962 RMK AO1 PRESRR SLP087
METAR CYNL 261600Z AUTO ///// 9SM OVC011 M15/M17 A2959 RMK AO1 SLP075
METAR CYNL 261500Z AUTO 30011KT 9SM OVC012 M14/M17 A2957 RMK AO1 PRESRR SLP069
METAR CYNL 261400Z AUTO 30007KT 9SM BKN011 OVC015 M14/M16 A2955 RMK AO1 PRESRR SLP059
METAR CYNL 261300Z AUTO 31007G17KT 9SM BKN011 BKN014 OVC066 M13/M16 A2952 RMK AO1 SLP051
METAR CYNL 261200Z AUTO 30008KT 9SM OVC012 M13/M15 A2951 RMK AO1 SLP046
SPECI CYNL 261118Z AUTO 30009G16KT 9SM BKN014 OVC019 M13/M15 A2950 RMK AO1 SLP043
SPECI CYNL 261111Z AUTO 30006KT 9SM BKN015 OVC019 M13/M15 A2950 RMK AO1 SLP043
SPECI CYNL 261110Z AUTO 30007KT 9SM BKN014 OVC018 M13/M15 A2950 RMK AO1 SLP043
METAR CYNL 261100Z AUTO 29008KT 9SM BKN015 OVC019 M13/M15 A2950 RMK AO1 SLP043
SPECI CYNL 261050Z AUTO 30008KT 9SM BKN015 OVC019 M13/M15 A2950 RMK AO1 SLP042
SPECI CYNL 261039Z AUTO 29010G16KT 9SM OVC014 M13/M15 A2949 RMK AO1 SLP040
SPECI CYNL 261037Z AUTO 30008G16KT 9SM OVC015 M13/M15 A2949 RMK AO1 SLP040
SPECI CYNL 261021Z AUTO 30011KT 9SM BKN014 OVC020 M13/M15 A2949 RMK AO1 SLP039
SPECI CYNL 261017Z AUTO 29012KT 9SM OVC015 M13/M15 A2949 RMK AO1 SLP038
SPECI CYNL 261016Z AUTO 29009KT 8SM OVC014 M13/M15 A2949 RMK AO1 SLP038
SPECI CYNL 261015Z AUTO 30006KT 7SM OVC015 M13/M15 A2949 RMK AO1 SLP038
SPECI CYNL 261009Z AUTO 28007KT 7SM BKN014 OVC020 M13/M15 A2949 RMK AO1 SLP037
METAR CYNL 261000Z AUTO 30009KT 9SM BKN015 BKN018 OVC052 M13/M15 A2948 RMK AO1 SLP037
SPECI CYNL 260954Z AUTO 30007G17KT 7SM FEW009 BKN015 BKN019 M13/M15 A2948 RMK AO1 SLP035
METAR CYNL 260900Z AUTO 28008KT 4SM SCT014 BKN018 OVC036 M12/M14 A2947 RMK AO1 SLP030
SPECI CYNL 260857Z AUTO 29008KT 4SM SCT014 BKN018 OVC035 M12/M14 A2947 RMK AO1 SLP029
SPECI CYNL 260854Z AUTO 27008KT 6SM BKN014 OVC035 M12/M14 A2947 RMK AO1 SLP029
SPECI CYNL 260850Z AUTO 28008KT 6SM SCT013 BKN016 OVC035 M12/M14 A2947 RMK AO1 SLP028
SPECI CYNL 260847Z AUTO 28008G15KT 6SM BKN013 BKN017 OVC034 M12/M14 A2947 RMK AO1 SLP028
SPECI CYNL 260843Z AUTO 28009G16KT 6SM SCT013 BKN017 OVC034 M12/M14 A2947 RMK AO1 SLP028
METAR CYNL 260800Z AUTO 28011KT 8SM OVC013 M12/M14 A2946 RMK AO1 SLP025
SPECI CYNL 260727Z AUTO 28007KT 9SM BKN014 BKN020 OVC041 M12/M14 A2946 RMK AO1 SLP022
SPECI CYNL 260725Z AUTO 28006KT 9SM BKN015 BKN021 OVC041 M12/M14 A2946 RMK AO1 SLP021
SPECI CYNL 260722Z AUTO 28010KT 9SM BKN014 BKN020 OVC041 M12/M14 A2946 RMK AO1 SLP021
METAR CYNL 260700Z AUTO 28006G15KT 7SM VV019 M12/M14 A2945 RMK AO1 SLP020
SPECI CYNL 260633Z AUTO 27008KT 7SM SCT015 BKN018 OVC038 M12/M14 A2945 RMK AO1 SLP021
SPECI CYNL 260602Z AUTO 28008G18KT 5SM SCT015 OVC036 M12/M14 A2945 RMK AO1 SLP019
METAR CYNL 260600Z AUTO 28008G18KT 6SM SCT015 BKN018 OVC036 M12/M14 A2945 RMK AO1 SLP019
SPECI CYNL 260542Z AUTO 28011G18KT 8SM BKN015 BKN019 OVC035 M11/M13 A2945 RMK AO1 SLP019
SPECI CYNL 260540Z AUTO 28011G17KT 7SM BKN014 BKN019 OVC035 M11/M13 A2945 RMK AO1 SLP019
SPECI CYNL 260537Z AUTO 28012KT 5SM BKN015 OVC019 M11/M13 A2945 RMK AO1 SLP019
SPECI CYNL 260531Z AUTO 27008KT 7SM BKN014 BKN019 OVC036 M11/M13 A2945 RMK AO1 SLP019
SPECI CYNL 260519Z AUTO 27009KT 8SM BKN015 OVC035 M11/M13 A2944 RMK AO1 SLP018
SPECI CYNL 260518Z AUTO 27009KT 7SM BKN014 OVC035 M11/M13 A2944 RMK AO1 SLP018
SPECI CYNL 260514Z AUTO 27008KT 7SM BKN015 OVC036 M11/M13 A2944 RMK AO1 SLP018
METAR CYNL 260500Z AUTO 28009KT 9SM FEW012 SCT023 OVC035 M11/M13 A2944 RMK AO1 SLP017
SPECI CYNL 260453Z AUTO 28009KT 7SM FEW015 SCT022 OVC035 M11/M13 A2944 RMK AO1 SLP017
METAR CYNL 260400Z AUTO 28007G16KT 3SM VV020 M11/M13 A2943 RMK AO1 SLP014
SPECI CYNL 260326Z AUTO 27008KT 5SM SCT014 OVC024 M11/M12 A2944 RMK AO1 SLP017
SPECI CYNL 260324Z AUTO 27007KT 4SM SCT014 OVC025 M11/M12 A2944 RMK AO1 SLP017
SPECI CYNL 260311Z AUTO 27008G16KT 6SM BKN015 BKN019 OVC023 M10/M12 A2944 RMK AO1 SLP016
METAR CYNL 260300Z AUTO 27008KT 6SM BKN014 BKN017 OVC020 M10/M12 A2943 RMK AO1 SLP015
SPECI CYNL 260228Z AUTO 27007KT 5SM OVC014 M10/M12 A2943 RMK AO1 SLP015
SPECI CYNL 260222Z AUTO 26008KT 7SM OVC015 M10/M12 A2943 RMK AO1 SLP014
SPECI CYNL 260219Z AUTO 26008KT 7SM BKN014 OVC017 M10/M12 A2943 RMK AO1 SLP015
METAR CYNL 260200Z AUTO 26009G16KT 8SM OVC016 M10/M12 A2943 RMK AO1 SLP014
SPECI CYNL 260131Z AUTO 26009G16KT 8SM OVC015 M10/M12 A2943 RMK AO1 SLP013
SPECI CYNL 260128Z AUTO 26006G16KT 8SM BKN014 OVC017 M10/M12 A2943 RMK AO1 SLP013
SPECI CYNL 260127Z AUTO 26005G16KT 7SM OVC015 M10/M12 A2943 RMK AO1 SLP013
SPECI CYNL 260110Z AUTO 26007KT 9SM BKN013 OVC017 M10/M12 A2942 RMK AO1 SLP012
SPECI CYNL 260104Z AUTO 26007KT 8SM OVC015 M10/M12 A2942 RMK AO1 SLP012
SPECI CYNL 260103Z AUTO 27006KT 9SM BKN014 OVC018 M10/M12 A2942 RMK AO1 SLP012
METAR CYNL 260100Z AUTO 27008KT 8SM OVC016 M10/M12 A2942 RMK AO1 SLP012
METAR CYNL 260000Z AUTO 27007KT 9SM OVC018 M10/M12 A2942 RMK AO1 SLP011
SPECI CYNL 252302Z AUTO 27005KT 9SM FEW016 BKN019 M10/M12 A2941 RMK AO1 SLP009
METAR CYNL 252300Z AUTO 27006KT 9SM FEW016 SCT019 BKN040 M10/M12 A2941 RMK AO1 SLP010
SPECI CYNL 252251Z AUTO 27007KT 9SM SCT016 M10/M12 A2941 RMK AO1 SLP010
METAR CYNL 252200Z AUTO 29013G20KT 8SM SCT013 BKN016 OVC022 M09/M11 A2940 RMK AO1 SLP006
SPECI CYNL 252159Z AUTO 28012G20KT 9SM BKN015 OVC022 M09/M11 A2940 RMK AO1 SLP006
SPECI CYNL 252147Z AUTO 28012G18KT 9SM BKN014 BKN017 OVC024 M09/M11 A2940 RMK AO1 PRESRR SLP005
SPECI CYNL 252146Z AUTO 28013G18KT 9SM SCT013 BKN016 OVC024 M09/M10 A2940 RMK AO1 PRESRR SLP005
SPECI CYNL 252128Z AUTO 28010G19KT 6SM BKN012 OVC015 M08/M10 A2940 RMK AO1 PRESRR SLP002
SPECI CYNL 252127Z AUTO 28012G19KT 7SM SCT012 OVC015 M08/M10 A2940 RMK AO1 PRESRR SLP002
METAR CYNL 252100Z AUTO 28008KT 9SM BKN013 BKN025 OVC037 M08/M09 A2939 RMK AO1 PRESRR SLP999
SPECI CYNL 252056Z AUTO 29008G16KT 9SM BKN013 OVC037 M08/M09 A2939 RMK AO1 SLP999
SPECI CYNL 252029Z AUTO 28011G21KT 9SM SCT009 OVC019 M07/M09 A2938 RMK AO1 SLP996
SPECI CYNL 252028Z AUTO 28011G21KT 9SM SCT009 BKN014 OVC019 M07/M08 A2938 RMK AO1 SLP996
METAR CYNL 252000Z AUTO 30007KT 9SM OVC006 M05/M07 A2937 RMK AO1 SLP989
METAR CYNL 251900Z AUTO 24003KT 9SM OVC006 M07/M08 A2936 RMK AO1 SLP989
SPECI CYNL 251823Z AUTO 23003KT 9SM OVC005 M07/M09 A2937 RMK AO1 SLP991
METAR CYNL 251800Z AUTO 23004KT 9SM OVC004 M08/M09 A2937 RMK AO1 SLP991
METAR CYNL 251700Z AUTO 21003KT 4SM OVC004 M09/M10 A2937 RMK AO1 SLP995
SPECI CYNL 251647Z AUTO 21003KT 3SM OVC004 M09/M10 A2938 RMK AO1 SLP997
SPECI CYNL 251645Z AUTO 21005KT 2 1/2SM OVC004 M09/M10 A2938 RMK AO1 SLP997
SPECI CYNL 251641Z AUTO 21003KT 3SM OVC004 M09/M10 A2938 RMK AO1 SLP997
METAR CYNL 251600Z AUTO 21004KT 4SM OVC006 M09/M11 A2937 RMK AO1 SLP996
METAR CYNL 251500Z AUTO 20005KT 5SM BKN008 OVC010 M10/M11 A2938 RMK AO1 SLP000
SPECI CYNL 251445Z AUTO 19005KT 9SM BKN009 OVC012 M10/M12 A2938 RMK AO1 PRESFR SLP000
SPECI CYNL 251410Z AUTO 20004KT 9SM BKN014 OVC026 M10/M12 A2938 RMK AO1 PRESFR SLP001
METAR CYNL 251400Z AUTO 19006KT 9SM BKN015 OVC026 M10/M12 A2938 RMK AO1 PRESFR SLP000
SPECI CYNL 251358Z AUTO 19006KT 7SM SCT014 OVC026 M10/M12 A2938 RMK AO1 PRESFR SLP001
SPECI CYNL 251357Z AUTO 19006KT 7SM FEW008 BKN014 OVC026 M10/M12 A2938 RMK AO1 SLP001
SPECI CYNL 251352Z AUTO 18006KT 7SM FEW009 BKN015 OVC028 M10/M12 A2938 RMK AO1 SLP001
SPECI CYNL 251351Z AUTO 18005KT 7SM BKN014 BKN017 OVC029 M10/M12 A2938 RMK AO1 SLP001
SPECI CYNL 251347Z AUTO 19006KT 5SM OVC015 M10/M12 A2938 RMK AO1 SLP001
SPECI CYNL 251332Z AUTO 18005KT 3SM OVC014 M10/M12 A2938 RMK AO1 SLP004
SPECI CYNL 251330Z AUTO 19006KT 2 1/2SM OVC014 M10/M12 A2939 RMK AO1 SLP004
SPECI CYNL 251319Z AUTO 18005KT 6SM BKN014 OVC018 M10/M12 A2939 RMK AO1 SLP006
SPECI CYNL 251309Z AUTO 18006KT 3SM OVC016 M10/M12 A2939 RMK AO1 SLP007
METAR CYNL 251300Z AUTO 19005KT 2SM FEW011 BKN015 OVC018 M10/M12 A2940 RMK AO1 SLP009
SPECI CYNL 251259Z AUTO 19005KT 1 3/4SM BKN014 OVC018 M10/M12 A2940 RMK AO1 SLP009
SPECI CYNL 251254Z AUTO 18005KT 1 3/4SM VV015 M10/M12 A2940 RMK AO1 SLP008
SPECI CYNL 251248Z AUTO 18006KT 2 1/2SM VV016 M10/M12 A2940 RMK AO1 SLP008
SPECI CYNL 251247Z AUTO 18007KT 3SM VV016 M10/M12 A2940 RMK AO1 SLP008
SPECI CYNL 251243Z AUTO 19005KT 2 1/2SM VV015 M10/M12 A2940 RMK AO1 SLP009
SPECI CYNL 251236Z AUTO 18004KT 2SM VV012 M10/M12 A2940 RMK AO1 SLP009
SPECI CYNL 251232Z AUTO 17007KT 1 1/2SM VV012 M10/M12 A2940 RMK AO1 SLP008
SPECI CYNL 251221Z AUTO 17007KT 1 1/4SM VV014 M10/M12 A2940 RMK AO1 SLP009
SPECI CYNL 251217Z AUTO 17006KT 1 1/4SM VV015 M10/M12 A2940 RMK AO1 SLP010
SPECI CYNL 251204Z AUTO 17006KT 1 1/4SM OVC014 M10/M12 A2941 RMK AO1 SLP012
METAR CYNL 251200Z AUTO 18006KT 1 1/4SM OVC015 M10/M12 A2941 RMK AO1 SLP013
SPECI CYNL 251157Z AUTO 17007KT 1SM OVC015 M10/M12 A2941 RMK AO1 PRESFR SLP012
SPECI CYNL 251156Z AUTO 17007KT 3/4SM VV014 M10/M12 A2941 RMK AO1 PRESFR SLP012
SPECI CYNL 251155Z AUTO 17007KT 1SM VV014 M10/M12 A2941 RMK AO1 PRESFR SLP012
SPECI CYNL 251148Z AUTO 17006KT 1 1/4SM OVC016 M10/M12 A2941 RMK AO1 PRESFR SLP013
SPECI CYNL 251143Z AUTO 17005KT 1 1/2SM OVC016 M10/M12 A2941 RMK AO1 PRESFR SLP014
SPECI CYNL 251136Z AUTO 17006KT 1 1/4SM VV015 M10/M12 A2942 RMK AO1 PRESFR SLP015
SPECI CYNL 251123Z AUTO 17005KT 1 3/4SM VV016 M10/M12 A2942 RMK AO1 PRESFR SLP015
SPECI CYNL 251122Z AUTO 17006KT 2SM VV016 M10/M12 A2942 RMK AO1 PRESFR SLP015
SPECI CYNL 251106Z AUTO 17007KT 1 3/4SM VV017 M10/M12 A2942 RMK AO1 PRESFR SLP018
METAR CYNL 251100Z AUTO 17006KT 2 1/2SM VV017 M10/M12 A2942 RMK AO1 PRESFR SLP017
SPECI CYNL 251050Z AUTO 17007KT 6SM VV016 M10/M12 A2942 RMK AO1 SLP017
METAR CYNL 251000Z AUTO 17008KT 6SM SCT007 OVC038 M11/M13 A2944 RMK AO1 SLP024
SPECI CYNL 250953Z AUTO 17008KT 5SM FEW006 SCT008 OVC039 M11/M13 A2944 RMK AO1 PRESFR SLP024
SPECI CYNL 250948Z AUTO 17008KT 5SM FEW006 SCT008 BKN010 M11/M13 A2944 RMK AO1 PRESFR SLP024
SPECI CYNL 250934Z AUTO 17007KT 3SM VV009 M11/M13 A2944 RMK AO1 PRESFR SLP024
SPECI CYNL 250932Z AUTO 17007KT 2 1/2SM VV009 M11/M13 A2945 RMK AO1 PRESFR SLP024
SPECI CYNL 250930Z AUTO 16006KT 2SM VV010 M11/M13 A2945 RMK AO1 PRESFR SLP024
SPECI CYNL 250928Z AUTO 16007KT 1 1/2SM VV010 M11/M13 A2945 RMK AO1 PRESFR SLP024
SPECI CYNL 250926Z AUTO 16008KT 1SM VV010 M11/M13 A2945 RMK AO1 PRESFR SLP025
SPECI CYNL 250924Z AUTO 17007KT 3/4SM VV009 M11/M13 A2945 RMK AO1 PRESFR SLP026
SPECI CYNL 250917Z AUTO 17007KT 3/8SM VV009 M11/M13 A2945 RMK AO1 PRESFR SLP027
SPECI CYNL 250913Z AUTO 16007KT 5/8SM VV013 M11/M13 A2945 RMK AO1 PRESFR SLP027
SPECI CYNL 250912Z AUTO 16007KT 5/8SM VV015 M11/M13 A2945 RMK AO1 PRESFR SLP027
SPECI CYNL 250911Z AUTO 17007KT 3/4SM VV016 M11/M13 A2945 RMK AO1 PRESFR SLP027
SPECI CYNL 250909Z AUTO 17008KT 1 1/4SM VV020 M11/M13 A2945 RMK AO1 PRESFR SLP027
SPECI CYNL 250908Z AUTO 17008KT 1 3/4SM VV022 M11/M13 A2945 RMK AO1 PRESFR SLP027
SPECI CYNL 250907Z AUTO 17007KT 2SM VV022 M11/M13 A2945 RMK AO1 PRESFR SLP028
SPECI CYNL 250903Z AUTO 17007KT 3SM VV015 M11/M13 A2946 RMK AO1 PRESFR SLP029
SPECI CYNL 250901Z AUTO 17008KT 2SM VV010 M11/M13 A2945 RMK AO1 PRESFR SLP028
METAR CYNL 250900Z AUTO 17009KT 2SM VV007 M11/M13 A2945 RMK AO1 PRESFR SLP028
SPECI CYNL 250859Z AUTO 17009KT 2 1/2SM BKN008 BKN011 OVC035 M11/M13 A2945 RMK AO1 PRESFR SLP028
SPECI CYNL 250850Z AUTO 16008KT 3SM VV007 M11/M13 A2946 RMK AO1 PRESFR SLP028
SPECI CYNL 250849Z AUTO 16008KT 2 1/2SM VV007 M11/M13 A2946 RMK AO1 PRESFR SLP029
SPECI CYNL 250848Z AUTO 16008KT 1 3/4SM VV007 M11/M13 A2946 RMK AO1 PRESFR SLP029
SPECI CYNL 250839Z AUTO 16008KT 1SM VV009 M11/M13 A2946 RMK AO1 PRESFR SLP030
SPECI CYNL 250833Z AUTO 16008KT 3/4SM VV009 M11/M13 A2946 RMK AO1 PRESFR SLP029
SPECI CYNL 250831Z AUTO 16008KT 1SM VV009 M11/M13 A2946 RMK AO1 PRESFR SLP030
SPECI CYNL 250828Z AUTO 16007KT 1SM VV010 M11/M13 A2946 RMK AO1 PRESFR SLP029
SPECI CYNL 250822Z AUTO 16007KT 3/4SM VV010 M11/M13 A2946 RMK AO1 PRESFR SLP030
SPECI CYNL 250807Z AUTO 15007KT 1SM VV011 M11/M13 A2947 RMK AO1 PRESFR SLP032
SPECI CYNL 250804Z AUTO 15008KT 3/4SM VV011 M11/M13 A2947 RMK AO1 PRESFR SLP032
SPECI CYNL 250802Z AUTO 15008KT 5/8SM VV010 M11/M13 A2947 RMK AO1 PRESFR SLP033
METAR CYNL 250800Z AUTO 15008KT 3/4SM VV010 M11/M13 A2947 RMK AO1 PRESFR SLP034
SPECI CYNL 250753Z AUTO 15008KT 1/2SM VV010 M11/M13 A2947 RMK AO1 SLP036
SPECI CYNL 250746Z AUTO 15008KT 5/8SM VV009 M11/M13 A2948 RMK AO1 SLP037
SPECI CYNL 250744Z AUTO 16007KT 5/8SM VV011 M11/M13 A2948 RMK AO1 SLP037
SPECI CYNL 250741Z AUTO 15006KT 3/4SM VV012 M11/M13 A2948 RMK AO1 SLP038
SPECI CYNL 250740Z AUTO 16006KT 5/8SM VV013 M11/M13 A2948 RMK AO1 SLP038
SPECI CYNL 250738Z AUTO 15008KT 3/4SM VV013 M11/M13 A2948 RMK AO1 SLP038
SPECI CYNL 250735Z AUTO 15006KT 1SM VV012 M11/M13 A2948 RMK AO1 SLP039
SPECI CYNL 250734Z AUTO 15007KT 3/4SM VV011 M11/M13 A2948 RMK AO1 SLP039
SPECI CYNL 250732Z AUTO 15007KT 5/8SM VV010 M11/M13 A2948 RMK AO1 SLP039
SPECI CYNL 250730Z AUTO 16007KT 3/4SM VV010 M11/M13 A2948 RMK AO1 SLP039
SPECI CYNL 250721Z AUTO 15007KT 5/8SM VV012 M11/M13 A2949 RMK AO1 SLP040
SPECI CYNL 250718Z AUTO 16007KT 3/4SM VV012 M11/M13 A2949 RMK AO1 SLP040
SPECI CYNL 250704Z AUTO 16006KT 5/8SM VV014 M11/M13 A2950 RMK AO1 SLP044
SPECI CYNL 250702Z AUTO 16006KT 3/4SM VV014 M11/M13 A2950 RMK AO1 SLP044
METAR CYNL 250700Z AUTO 16006KT 1SM VV014 M11/M13 A2950 RMK AO1 SLP044
SPECI CYNL 250657Z AUTO 16007KT 1SM VV015 M11/M14 A2950 RMK AO1 SLP045
SPECI CYNL 250654Z AUTO 17007KT 1SM VV014 M11/M14 A2950 RMK AO1 SLP046
SPECI CYNL 250652Z AUTO 17007KT 3/4SM VV013 M11/M14 A2950 RMK AO1 SLP046
SPECI CYNL 250651Z AUTO 17007KT 1SM VV012 M11/M14 A2950 RMK AO1 SLP047
SPECI CYNL 250648Z AUTO 17007KT 3/4SM VV012 M11/M14 A2950 RMK AO1 SLP048
SPECI CYNL 250632Z AUTO 17008KT 5/8SM VV012 M12/M14 A2950 RMK AO1 SLP047
SPECI CYNL 250628Z AUTO 17009KT 3/4SM VV012 M12/M14 A2950 RMK AO1 SLP045
SPECI CYNL 250627Z AUTO 16009KT 5/8SM VV012 M12/M14 A2950 RMK AO1 SLP045
SPECI CYNL 250625Z AUTO 16009KT 3/4SM VV011 M12/M14 A2950 RMK AO1 SLP045
SPECI CYNL 250620Z AUTO 17008KT 5/8SM VV013 M12/M14 A2950 RMK AO1 SLP045
SPECI CYNL 250619Z AUTO 16008KT 3/4SM VV013 M12/M14 A2950 RMK AO1 SLP045
SPECI CYNL 250614Z AUTO 16009KT 1 1/4SM VV014 M12/M14 A2950 RMK AO1 SLP045
SPECI CYNL 250612Z AUTO 16009KT 1 3/4SM VV014 M12/M14 A2950 RMK AO1 SLP046
SPECI CYNL 250603Z AUTO 16008KT 2SM VV015 M12/M14 A2950 RMK AO1 SLP047
SPECI CYNL 250601Z AUTO 16008KT 1 1/2SM VV013 M12/M14 A2950 RMK AO1 SLP047
METAR CYNL 250600Z AUTO 15008KT 1 1/4SM VV013 M12/M14 A2950 RMK AO1 SLP047
SPECI CYNL 250558Z AUTO 16009KT 1 1/4SM VV013 M12/M14 A2950 RMK AO1 SLP049
SPECI CYNL 250551Z AUTO 15010KT 1 1/2SM VV014 M12/M14 A2951 RMK AO1 PRESFR SLP050
SPECI CYNL 250541Z AUTO 16008KT 1SM VV013 M12/M14 A2951 RMK AO1 PRESFR SLP052
SPECI CYNL 250536Z AUTO 16007G15KT 3/4SM VV010 M12/M14 A2951 RMK AO1 PRESFR SLP052
SPECI CYNL 250535Z AUTO 16006G15KT 3/4SM VV009 M12/M14 A2951 RMK AO1 PRESFR SLP053
SPECI CYNL 250532Z AUTO 16007G15KT 1SM VV007 M12/M14 A2951 RMK AO1 PRESFR SLP053
SPECI CYNL 250528Z AUTO 16008KT 3/4SM VV007 M12/M14 A2951 RMK AO1 PRESFR SLP053
SPECI CYNL 250524Z AUTO 16010KT 5/8SM VV007 M12/M14 A2952 RMK AO1 PRESFR SLP054
SPECI CYNL 250523Z AUTO 16010KT 3/4SM VV008 M12/M14 A2952 RMK AO1 PRESFR SLP055
SPECI CYNL 250520Z AUTO 15010KT 1 1/4SM OVC007 M12/M14 A2952 RMK AO1 PRESFR SLP055
SPECI CYNL 250519Z AUTO 16009KT 1 3/4SM OVC007 M12/M14 A2952 RMK AO1 PRESFR SLP055
SPECI CYNL 250518Z AUTO 15008KT 2 1/2SM OVC007 M12/M14 A2952 RMK AO1 PRESFR SLP055
METAR CYNL 250500Z AUTO 16009KT 9SM OVC007 M12/M15 A2952 RMK AO1 PRESFR SLP057
METAR CYNL 250400Z AUTO 15009KT 9SM OVC008 M13/M15 A2955 RMK AO1 PRESFR SLP067
METAR CYNL 250300Z AUTO 15011KT 9SM SCT003 BKN009 M13/M16 A2957 RMK AO1 PRESFR SLP077
SPECI CYNL 250250Z AUTO 15009KT 9SM SCT003 OVC009 M13/M16 A2958 RMK AO1 PRESFR SLP080
SPECI CYNL 250240Z AUTO 15008G17KT 9SM VV004 M14/M16 A2958 RMK AO1 PRESFR SLP080
METAR CYNL 250200Z AUTO 15010KT 9SM BKN009 OVC100 M14/M16 A2959 RMK AO1 PRESFR SLP086
METAR CYNL 250100Z AUTO 15008KT 9SM OVC008 M14/M17 A2961 RMK AO1 PRESFR SLP094
METAR CYNL 250000Z AUTO 15008KT 9SM OVC009 M14/M16 A2964 RMK AO1 PRESFR SLP102
METAR CYNL 242300Z AUTO 16007KT 9SM OVC009 M14/M16 A2966 RMK AO1 SLP109
METAR CYNL 242200Z AUTO 16007KT 9SM OVC009 M13/M16 A2968 RMK AO1 PRESFR SLP119
METAR CYNL 242100Z AUTO 17008KT 9SM OVC007 M14/M16 A2970 RMK AO1 SLP125
METAR CYNL 242000Z AUTO 16009KT 9SM OVC006 M14/M17 A2971 RMK AO1 PRESFR SLP131
METAR CYNL 241900Z AUTO 18008KT 8SM FEW003 OVC006 M15/M17 A2974 RMK AO1 PRESFR SLP140
SPECI CYNL 241830Z AUTO 18008KT 9SM OVC005 M15/M18 A2976 RMK AO1 SLP143
METAR CYNL 241800Z AUTO 18008KT 9SM OVC004 M16/M19 A2976 RMK AO1 SLP146
SPECI CYNL 241705Z AUTO 18006KT 9SM OVC003 M17/M20 A2977 RMK AO1 SLP149
METAR CYNL 241700Z AUTO 18006KT 9SM OVC002 M17/M20 A2977 RMK AO1 SLP151
SPECI CYNL 241654Z AUTO 18006KT 3SM OVC002 M17/M20 A2978 RMK AO1 SLP152
SPECI CYNL 241652Z AUTO 18007KT 2 1/2SM OVC002 M17/M20 A2978 RMK AO1 SLP152
SPECI CYNL 241649Z AUTO 18005KT 3SM BKN002 OVC003 M17/M20 A2978 RMK AO1 SLP152
SPECI CYNL 241647Z AUTO 18006KT 2 1/2SM BKN002 OVC003 M18/M20 A2978 RMK AO1 SLP152
SPECI CYNL 241646Z AUTO 18007KT 1 1/2SM BKN002 OVC003 M18/M20 A2978 RMK AO1 SLP153
SPECI CYNL 241642Z AUTO 18006KT 1SM OVC002 M18/M21 A2978 RMK AO1 SLP153
SPECI CYNL 241640Z AUTO 18006KT 3/4SM OVC002 M18/M21 A2978 RMK AO1 SLP153
SPECI CYNL 241624Z AUTO 17003KT 1/4SM OVC002 M18/M21 A2978 RMK AO1 SLP154
SPECI CYNL 241612Z AUTO 16003KT 1/4SM VV003 M19/M22 A2979 RMK AO1 SLP157
SPECI CYNL 241604Z AUTO 15005KT 1/8SM VV003 M19/M22 A2979 RMK AO1 SLP157
METAR CYNL 241600Z AUTO 15004KT 1/8SM VV002 M19/M22 A2979 RMK AO1 SLP158
METAR CYNL 241500Z AUTO 16003KT 0SM VV002 M19/M22 A2981 RMK AO1 SLP164
SPECI CYNL 241426Z AUTO 19003KT 1/8SM VV002 M19/M22 A2982 RMK AO1 SLP169
SPECI CYNL 241418Z AUTO 19002KT 1/8SM VV003 M19/M23 A2982 RMK AO1 SLP169
SPECI CYNL 241412Z AUTO 20002KT 1/2SM OVC002 M20/M23 A2982 RMK AO1 SLP170
SPECI CYNL 241411Z AUTO 19002KT 1 1/4SM OVC002 M20/M23 A2983 RMK AO1 SLP170
SPECI CYNL 241410Z AUTO 19003KT 1 1/2SM OVC002 M20/M23 A2983 RMK AO1 SLP171
SPECI CYNL 241409Z AUTO 19003KT 2SM OVC002 M20/M23 A2983 RMK AO1 SLP171
METAR CYNL 241400Z AUTO 21003KT 9SM OVC002 M20/M23 A2983 RMK AO1 SLP172
SPECI CYNL 241355Z AUTO 20003KT 9SM OVC002 M20/M23 A2983 RMK AO1 SLP172
SPECI CYNL 241323Z AUTO 21002KT 9SM BKN004 OVC007 M20/M23 A2984 RMK AO1 SLP175
METAR CYNL 241300Z AUTO 24003KT 9SM BKN007 M20/M23 A2984 RMK AO1 SLP176
SPECI CYNL 241259Z AUTO 24003KT 9SM BKN007 M20/M23 A2984 RMK AO1 SLP176
SPECI CYNL 241245Z AUTO 00000KT 9SM FEW006 M19/M22 A2983 RMK AO1 PRESFR SLP171
METAR CYNL 241200Z AUTO 14002KT 9SM OVC040 M18/M21 A2984 RMK AO1 PRESFR SLP174
METAR CYNL 241100Z AUTO 00000KT 9SM OVC043 M21/M24 A2986 RMK AO1 SLP185
METAR CYNL 241000Z AUTO 07004KT 9SM FEW042 M21/M24 A2986 RMK AO1 SLP184
METAR CYNL 240900Z AUTO 09003KT 9SM CLR M22/M25 A2987 RMK AO1 SLP187
METAR CYNL 240800Z AUTO 00000KT 9SM CLR M19/M23 A2989 RMK AO1 SLP190
METAR CYNL 240700Z AUTO 00000KT 9SM CLR M18/M21 A2989 RMK AO1 SLP190
METAR CYNL 240600Z AUTO 13004KT 9SM FEW006 M17/M20 A2989 RMK AO1 SLP190
SPECI CYNL 240540Z AUTO 12004KT 6SM SCT006 M17/M20 A2989 RMK AO1 SLP191
SPECI CYNL 240539Z AUTO 12004KT 6SM SCT006 BKN011 M17/M20 A2989 RMK AO1 SLP191
SPECI CYNL 240534Z AUTO 11004KT 6SM VV007 M17/M19 A2989 RMK AO1 SLP191
SPECI CYNL 240533Z AUTO 12004KT 7SM SCT007 BKN011 M17/M19 A2989 RMK AO1 SLP191
SPECI CYNL 240523Z AUTO 12003KT 6SM SCT006 M17/M19 A2990 RMK AO1 SLP192
SPECI CYNL 240514Z AUTO 11004KT 7SM VV009 M17/M19 A2989 RMK AO1 SLP191
METAR CYNL 240500Z AUTO 12005KT 7SM FEW008 M17/M19 A2990 RMK AO1 SLP192
SPECI CYNL 240454Z AUTO 12005KT 8SM FEW008 SCT014 M17/M19 A2990 RMK AO1 SLP196
SPECI CYNL 240451Z AUTO 12004KT 9SM VV012 M17/M19 A2991 RMK AO1 SLP196
SPECI CYNL 240408Z AUTO 12004KT 9SM FEW006 SCT009 M17/M19 A2991 RMK AO1 SLP199
SPECI CYNL 240405Z AUTO 12005KT 7SM FEW006 SCT009 BKN011 M17/M19 A2991 RMK AO1 SLP199
METAR CYNL 240400Z AUTO 13005KT 6SM SCT007 BKN009 BKN012 M17/M19 A2992 RMK AO1 SLP199
SPECI CYNL 240349Z AUTO 12006KT 5SM VV009 M17/M19 A2992 RMK AO1 SLP200
SPECI CYNL 240340Z AUTO 14004KT 6SM VV010 M17/M19 A2992 RMK AO1 SLP201
METAR CYNL 240300Z AUTO 13004KT 4SM VV006 M16/M19 A2993 RMK AO1 SLP203
SPECI CYNL 240254Z AUTO 11003KT 3SM VV006 M16/M19 A2992 RMK AO1 SLP204
SPECI CYNL 240249Z AUTO 13005KT 5SM FEW006 M16/M19 A2993 RMK AO1 SLP205
METAR CYNL 240200Z AUTO 12005KT 9SM CLR M16/M19 A2992 RMK AO1 SLP204
SPECI CYNL 240139Z AUTO 12006KT 6SM SCT007 M16/M19 A2993 RMK AO1 SLP205
SPECI CYNL 240135Z AUTO 11006KT 4SM SCT006 BKN014 M16/M19 A2993 RMK AO1 SLP204
SPECI CYNL 240132Z AUTO 11006KT 5SM SCT006 BKN015 M16/M19 A2993 RMK AO1 SLP205
SPECI CYNL 240122Z AUTO 10005KT 4SM VV009 M16/M19 A2993 RMK AO1 SLP205
SPECI CYNL 240113Z AUTO 09005KT 4SM VV014 M16/M19 A2993 RMK AO1 SLP206
METAR CYNL 240100Z AUTO 09004KT 4SM VV016 M16/M19 A2993 RMK AO1 SLP207
SPECI CYNL 240041Z AUTO 12004KT 5SM VV015 M16/M19 A2993 RMK AO1 SLP207
SPECI CYNL 240037Z AUTO 12005KT 5SM VV010 M16/M19 A2993 RMK AO1 SLP207
SPECI CYNL 240006Z AUTO 11004KT 5SM VV009 M16/M18 A2994 RMK AO1 SLP209
METAR CYNL 240000Z AUTO 11004KT 5SM VV012 M16/M18 A2994 RMK AO1 SLP208
SPECI CYNL 232350Z AUTO 11004KT 4SM VV014 M16/M18 A2994 RMK AO1 SLP210
SPECI CYNL 232312Z AUTO 11004KT 5SM VV015 M16/M19 A2995 RMK AO1 SLP211
SPECI CYNL 232311Z AUTO 11004KT 5SM VV014 M16/M19 A2995 RMK AO1 SLP211
METAR CYNL 232300Z AUTO 13006KT 4SM VV018 M16/M19 A2995 RMK AO1 SLP211
SPECI CYNL 232235Z AUTO 12006KT 5SM VV015 M16/M19 A2995 RMK AO1 SLP212
SPECI CYNL 232219Z AUTO 13008KT 3SM VV014 M16/M19 A2995 RMK AO1 SLP213
METAR CYNL 232200Z AUTO 13007KT 3SM VV020 M16/M19 A2995 RMK AO1 SLP214
SPECI CYNL 232155Z AUTO 12007KT 3SM VV015 M16/M19 A2995 RMK AO1 SLP213
SPECI CYNL 232148Z AUTO 12007KT 4SM VV010 M16/M19 A2995 RMK AO1 SLP213
SPECI CYNL 232119Z AUTO 14007KT 5SM VV009 M16/M19 A2995 RMK AO1 SLP214
SPECI CYNL 232118Z AUTO 13007KT 5SM VV010 M16/M19 A2995 RMK AO1 SLP214
SPECI CYNL 232117Z AUTO 13008KT 5SM VV009 M16/M19 A2996 RMK AO1 SLP214
SPECI CYNL 232112Z AUTO 13006KT 5SM VV010 M16/M19 A2996 RMK AO1 SLP214
SPECI CYNL 232108Z AUTO 14007KT 5SM VV008 M16/M19 A2996 RMK AO1 SLP215
SPECI CYNL 232103Z AUTO 14008KT 5SM FEW007 M16/M19 A2996 RMK AO1 SLP215
METAR CYNL 232100Z AUTO 13006KT 6SM CLR M16/M19 A2996 RMK AO1 SLP216
METAR CYNL 232000Z AUTO 13009KT 9SM CLR M16/M19 A2997 RMK AO1 SLP219
METAR CYNL 231900Z AUTO 13006KT 9SM CLR M16/M19 A2998 RMK AO1 SLP223
SPECI CYNL 231822Z AUTO 12006KT 9SM SCT008 M17/M19 A2999 RMK AO1 SLP226
SPECI CYNL 231816Z AUTO 14005KT 9SM BKN008 M17/M20 A2999 RMK AO1 SLP227
METAR CYNL 231800Z AUTO 14005KT 9SM FEW007 M17/M20 A2999 RMK AO1 SLP227
SPECI CYNL 231748Z AUTO 14006KT 9SM SCT007 M17/M20 A2999 RMK AO1 SLP226
METAR CYNL 231700Z AUTO 14005KT 9SM OVC006 M18/M21 A3000 RMK AO1 SLP231
METAR CYNL 231600Z AUTO ///// 9SM OVC005 M19/M22 A3001 RMK AO1 SLP235
METAR CYNL 231500Z AUTO 14005KT 9SM OVC006 M19/M22 A3002 RMK AO1 SLP239
METAR CYNL 231400Z AUTO 15006KT 9SM OVC005 M19/M22 A3003 RMK AO1 SLP240
METAR CYNL 231300Z AUTO 15005KT 9SM OVC006 M20/M23 A3005 RMK AO1 SLP247
METAR CYNL 231200Z AUTO 16005KT 9SM OVC006 M20/M23 A3006 RMK AO1 SLP250
METAR CYNL 231100Z AUTO 16005KT 9SM OVC006 M19/M22 A3006 RMK AO1 SLP251
METAR CYNL 231000Z AUTO 17005KT 9SM OVC006 M19/M22 A3007 RMK AO1 SLP254
METAR CYNL 230900Z AUTO 17007KT 9SM OVC006 M19/M22 A3008 RMK AO1 SLP255
SPECI CYNL 230824Z AUTO ///// 9SM OVC005 M19/M21 A3009 RMK AO1 SLP257
SPECI CYNL 230818Z AUTO ///// 9SM BKN004 OVC006 M19/M21 A3009 RMK AO1 SLP257
METAR CYNL 230800Z AUTO 17007KT 9SM OVC005 M18/M21 A3009 RMK AO1 SLP256
SPECI CYNL 230708Z AUTO 19007KT 9SM BKN005 OVC006 M18/M21 A3010 RMK AO1 SLP259
METAR CYNL 230700Z AUTO 18007KT 9SM BKN004 OVC006 M18/M21 A3009 RMK AO1 SLP259
SPECI CYNL 230655Z AUTO 19007KT 9SM BKN004 OVC006 M18/M21 A3009 RMK AO1 SLP258
METAR CYNL 230600Z AUTO 17008KT 9SM OVC006 M17/M20 A3010 RMK AO1 SLP261
METAR CYNL 230500Z AUTO 17009KT 9SM OVC006 M17/M20 A3012 RMK AO1 SLP267
METAR CYNL 230400Z AUTO 16005KT 9SM OVC007 M17/M19 A3012 RMK AO1 SLP268
METAR CYNL 230300Z AUTO 17005KT 9SM OVC008 M16/M19 A3013 RMK AO1 SLP272
METAR CYNL 230200Z AUTO 19005KT 9SM OVC008 M16/M19 A3015 RMK AO1 SLP279
SPECI CYNL 230102Z AUTO 22003KT 9SM OVC009 M16/M19 A3015 RMK AO1 SLP281
METAR CYNL 230100Z AUTO 22003KT 9SM OVC010 M16/M19 A3015 RMK AO1 SLP281
SPECI CYNL 230004Z AUTO 22003KT 9SM OVC010 M16/M18 A3017 RMK AO1 SLP287
METAR CYNL 230000Z AUTO 20004KT 9SM OVC009 M16/M18 A3017 RMK AO1 SLP287
SPECI CYNL 222354Z AUTO 20005KT 9SM OVC009 M16/M18 A3018 RMK AO1 SLP289
SPECI CYNL 222346Z AUTO 20006KT 9SM OVC010 M16/M18 A3018 RMK AO1 SLP289
SPECI CYNL 222339Z AUTO 23003KT 9SM OVC009 M16/M18 A3018 RMK AO1 SLP290
METAR CYNL 222300Z AUTO 22004KT 9SM OVC010 M15/M18 A3019 RMK AO1 SLP293
METAR CYNL 222200Z AUTO 26004KT 9SM OVC010 M15/M18 A3018 RMK AO1 SLP291
METAR CYNL 222100Z AUTO 24004KT 9SM OVC010 M15/M17 A3019 RMK AO1 SLP293
METAR CYNL 222000Z AUTO 32004KT 9SM OVC010 M15/M17 A3020 RMK AO1 SLP297
METAR CYNL 221900Z AUTO 30004KT 9SM OVC010 M15/M17 A3021 RMK AO1 SLP301
METAR CYNL 221800Z AUTO 25002KT 9SM OVC012 M15/M18 A3020 RMK AO1 SLP298
METAR CYNL 221700Z AUTO 29004KT 9SM OVC013 M16/M19 A3021 RMK AO1 SLP300
METAR CYNL 221600Z AUTO 29002KT 9SM OVC013 M17/M19 A3022 RMK AO1 SLP302
SPECI CYNL 221506Z AUTO 27004KT 9SM OVC014 M17/M20 A3021 RMK AO1 SLP302
METAR CYNL 221500Z AUTO 27003KT 9SM OVC015 M17/M20 A3021 RMK AO1 SLP301
METAR CYNL 221400Z AUTO 28005KT 9SM OVC018 M18/M21 A3021 RMK AO1 SLP302
METAR CYNL 221300Z AUTO ///// 9SM OVC016 M18/M21 A3021 RMK AO1 SLP298
SPECI CYNL 221218Z AUTO ///// 9SM OVC015 M18/M21 A3020 RMK AO1 SLP297
METAR CYNL 221200Z AUTO 29005KT 9SM OVC014 M19/M21 A3020 RMK AO1 SLP297
SPECI CYNL 221102Z AUTO ///// 9SM OVC014 M19/M22 A3020 RMK AO1 SLP296
METAR CYNL 221100Z AUTO ///// 9SM OVC015 M19/M22 A3019 RMK AO1 SLP296
SPECI CYNL 221052Z AUTO ///// 9SM OVC015 M19/M22 A3019 RMK AO1 SLP295
SPECI CYNL 221050Z AUTO ///// 9SM OVC014 M19/M22 A3019 RMK AO1 SLP295
SPECI CYNL 221047Z AUTO ///// 9SM OVC015 M19/M22 A3019 RMK AO1 SLP295
SPECI CYNL 221042Z AUTO ///// 9SM OVC014 M19/M22 A3019 RMK AO1 SLP294
METAR CYNL 221000Z AUTO ///// 9SM OVC016 M20/M23 A3018 RMK AO1 SLP292
METAR CYNL 220900Z AUTO ///// 9SM OVC018 M21/M24 A3018 RMK AO1 PRESRR SLP291
SPECI CYNL 220832Z AUTO ///// 9SM BKN021 M21/M24 A3017 RMK AO1 SLP287
METAR CYNL 220800Z AUTO ///// 9SM CLR M21/M24 A3016 RMK AO1 SLP283
METAR CYNL 220700Z AUTO ///// 9SM CLR M20/M23 A3014 RMK AO1 SLP277
SPECI CYNL 220601Z AUTO ///// 9SM SCT008 M18/M21 A3013 RMK AO1 SLP268
METAR CYNL 220600Z AUTO ///// 9SM SCT008 BKN020 M18/M21 A3013 RMK AO1 SLP268
SPECI CYNL 220543Z AUTO ///// 9SM FEW008 BKN019 M18/M20 A3012 RMK AO1 PRESRR SLP267
METAR CYNL 220500Z AUTO ///// 9SM FEW011 OVC018 M17/M20 A3012 RMK AO1 PRESRR SLP264
SPECI CYNL 220448Z AUTO ///// 9SM SCT011 OVC018 M17/M20 A3011 RMK AO1 SLP261
SPECI CYNL 220406Z AUTO ///// 9SM SCT011 OVC014 M17/M20 A3010 RMK AO1 SLP257
METAR CYNL 220400Z AUTO ///// 9SM SCT011 OVC015 M17/M20 A3009 RMK AO1 SLP256
SPECI CYNL 220358Z AUTO ///// 9SM FEW011 OVC015 M17/M20 A3009 RMK AO1 SLP256
SPECI CYNL 220349Z AUTO ///// 9SM FEW008 BKN014 OVC019 M17/M20 A3009 RMK AO1 SLP256
SPECI CYNL 220335Z AUTO ///// 9SM SCT008 OVC019 M17/M20 A3009 RMK AO1 SLP255
SPECI CYNL 220323Z AUTO ///// 9SM BKN008 OVC010 M17/M20 A3009 RMK AO1 SLP255
SPECI CYNL 220321Z AUTO ///// 9SM SCT008 BKN010 M17/M20 A3009 RMK AO1 SLP255
SPECI CYNL 220320Z AUTO ///// 9SM BKN008 BKN010 M17/M20 A3009 RMK AO1 SLP255
SPECI CYNL 220317Z AUTO ///// 9SM FEW008 BKN010 M17/M20 A3009 RMK AO1 SLP255
SPECI CYNL 220314Z AUTO ///// 9SM BKN009 M17/M20 A3009 RMK AO1 SLP254
METAR CYNL 220300Z AUTO ///// 9SM BKN011 M17/M19 A3009 RMK AO1 SLP253
METAR CYNL 220200Z AUTO 28008KT 9SM OVC011 M15/M18 A3008 RMK AO1 SLP247
SPECI CYNL 220137Z AUTO 28007KT 9SM OVC010 M15/M18 A3007 RMK AO1 SLP246
METAR CYNL 220100Z AUTO 28008KT 9SM OVC008 M15/M18 A3006 RMK AO1 SLP243
METAR CYNL 220000Z AUTO 28007KT 9SM BKN009 OVC014 M15/M18 A3006 RMK AO1 SLP240
SPECI CYNL 212348Z AUTO 27006KT 9SM BKN009 OVC013 M15/M18 A3005 RMK AO1 SLP239
SPECI CYNL 212336Z AUTO 28008KT 9SM FEW009 OVC013 M15/M18 A3005 RMK AO1 SLP239
METAR CYNL 212300Z AUTO 28007KT 9SM SCT010 BKN012 OVC027 M15/M17 A3005 RMK AO1 SLP237
METAR CYNL 212200Z AUTO 29005KT 9SM OVC027 M14/M17 A3003 RMK AO1 SLP231
METAR CYNL 212100Z AUTO 30007KT 9SM OVC027 M14/M16 A3002 RMK AO1 SLP224
SPECI CYNL 212031Z AUTO 27004KT 9SM FEW010 SCT011 OVC027 M14/M16 A3001 RMK AO1 SLP223
METAR CYNL 212000Z AUTO 29007KT 9SM OVC010 M13/M16 A3001 RMK AO1 SLP221
SPECI CYNL 211949Z AUTO 30007KT 9SM OVC010 M13/M16 A3000 RMK AO1 SLP220
SPECI CYNL 211925Z AUTO 29005KT 9SM FEW004 OVC009 M13/M16 A3000 RMK AO1 SLP219
SPECI CYNL 211919Z AUTO 31005KT 9SM FEW006 OVC010 M13/M16 A3000 RMK AO1 SLP219
METAR CYNL 211900Z AUTO 28006KT 9SM BKN010 OVC012 M13/M16 A3000 RMK AO1 SLP217
SPECI CYNL 211828Z AUTO 28004KT 9SM SCT010 BKN013 OVC025 M13/M16 A2999 RMK AO1 SLP216
SPECI CYNL 211824Z AUTO 28007KT 9SM SCT010 OVC025 M13/M16 A2999 RMK AO1 SLP216
SPECI CYNL 211823Z AUTO 28007KT 9SM SCT010 BKN015 OVC025 M13/M16 A2999 RMK AO1 SLP216
SPECI CYNL 211813Z AUTO 28006KT 9SM SCT010 BKN012 OVC024 M13/M16 A2999 RMK AO1 SLP215
METAR CYNL 211800Z AUTO 27004KT 9SM OVC024 M13/M16 A2998 RMK AO1 SLP213
METAR CYNL 211700Z AUTO 25005KT 9SM OVC020 M13/M16 A2997 RMK AO1 SLP209
SPECI CYNL 211628Z AUTO 27005KT 9SM FEW009 SCT013 OVC018 M14/M16 A2997 RMK AO1 SLP209
SPECI CYNL 211602Z AUTO 29005KT 9SM SCT008 BKN010 OVC013 M14/M16 A2997 RMK AO1 SLP209
METAR CYNL 211600Z AUTO 28005KT 9SM BKN008 OVC014 M14/M16 A2997 RMK AO1 SLP209
METAR CYNL 211500Z AUTO 27005KT 9SM OVC009 M13/M16 A2996 RMK AO1 SLP207
SPECI CYNL 211427Z AUTO 28003KT 9SM BKN009 OVC012 M13/M16 A2996 RMK AO1 SLP207
METAR CYNL 211400Z AUTO 28005KT 9SM OVC012 M13/M16 A2996 RMK AO1 SLP205
METAR CYNL 211300Z AUTO 27004KT 9SM OVC012 M13/M16 A2995 RMK AO1 SLP205
METAR CYNL 211200Z AUTO 26003KT 9SM OVC011 M13/M16 A2995 RMK AO1 SLP205
SPECI CYNL 211129Z AUTO 27004KT 6SM FEW006 OVC010 M13/M16 A2995 RMK AO1 SLP204
METAR CYNL 211100Z AUTO 28005KT 6SM OVC011 M13/M15 A2995 RMK AO1 SLP205
METAR CYNL 211000Z AUTO 25007KT 6SM OVC010 M12/M14 A2995 RMK AO1 SLP203
METAR CYNL 210900Z AUTO 21003KT 9SM OVC011 M13/M15 A2995 RMK AO1 SLP203
METAR CYNL 210800Z AUTO 17004KT 9SM OVC011 M13/M16 A2996 RMK AO1 SLP207
METAR CYNL 210700Z AUTO 17004KT 9SM BKN014 OVC018 M13/M16 A2998 RMK AO1 SLP214
METAR CYNL 210600Z AUTO 17004KT 9SM BKN011 OVC018 M13/M16 A2998 RMK AO1 SLP218
METAR CYNL 210500Z AUTO 20003KT 9SM OVC011 M13/M16 A3000 RMK AO1 SLP223
METAR CYNL 210400Z AUTO 20003KT 9SM OVC012 M14/M16 A3001 RMK AO1 PRESFR SLP228
METAR CYNL 210300Z AUTO 21004KT 9SM OVC011 M15/M17 A3003 RMK AO1 SLP236
SPECI CYNL 210215Z AUTO 20005KT 9SM OVC010 M15/M18 A3005 RMK AO1 SLP242
METAR CYNL 210200Z AUTO 20004KT 9SM OVC009 M15/M18 A3005 RMK AO1 SLP243
METAR CYNL 210100Z AUTO 20004KT 9SM OVC009 M15/M18 A3007 RMK AO1 SLP250
SPECI CYNL 210046Z AUTO 21005KT 9SM OVC009 M16/M18 A3007 RMK AO1 SLP251
SPECI CYNL 210038Z AUTO 21005KT 9SM OVC010 M16/M18 A3007 RMK AO1 SLP251
SPECI CYNL 210030Z AUTO 21004KT 9SM OVC009 M16/M18 A3007 RMK AO1 SLP251
SPECI CYNL 210024Z AUTO 20004KT 9SM BKN010 OVC011 M16/M18 A3008 RMK AO1 SLP252
METAR CYNL 210000Z AUTO 21006KT 9SM BKN009 BKN011 OVC054 M16/M18 A3008 RMK AO1 SLP255
SPECI CYNL 202325Z AUTO 22006KT 9SM OVC009 M15/M18 A3010 RMK AO1 SLP259
METAR CYNL 202300Z AUTO 23006KT 9SM OVC010 M15/M18 A3010 RMK AO1 SLP261
METAR CYNL 202200Z AUTO 22005KT 9SM OVC010 M15/M18 A3011 RMK AO1 SLP264
SPECI CYNL 202109Z AUTO 20004KT 9SM OVC010 M16/M18 A3012 RMK AO1 PRESFR SLP268
METAR CYNL 202100Z AUTO 22005KT 9SM OVC009 M16/M18 A3013 RMK AO1 PRESFR SLP269
METAR CYNL 202000Z AUTO 23006KT 9SM OVC008 M17/M19 A3015 RMK AO1 SLP279
METAR CYNL 201900Z AUTO 23006KT 9SM OVC007 M18/M21 A3016 RMK AO1 SLP288
METAR CYNL 201800Z AUTO 22006KT 9SM OVC007 M17/M20 A3018 RMK AO1 SLP297
METAR CYNL 201700Z AUTO 23004KT 9SM OVC006 M17/M20 A3019 RMK AO1 SLP299
SPECI CYNL 201602Z AUTO 23004KT 9SM OVC005 M17/M20 A3019 RMK AO1 SLP300
METAR CYNL 201600Z AUTO 25005KT 9SM OVC004 M17/M20 A3019 RMK AO1 SLP300
METAR CYNL 201500Z AUTO 24005KT 9SM OVC004 M17/M20 A3020 RMK AO1 SLP303
METAR CYNL 201400Z AUTO 27007KT 8SM OVC003 M17/M20 A3020 RMK AO1 SLP303
METAR CYNL 201300Z AUTO 27005KT 8SM OVC004 M17/M19 A3021 RMK AO1 SLP302
METAR CYNL 201200Z AUTO ///// 6SM BKN004 OVC006 M17/M19 A3021 RMK AO1 SLP302
METAR CYNL 201100Z AUTO 28008KT 3SM OVC003 M16/M19 A3021 RMK AO1 SLP297
SPECI CYNL 201055Z AUTO 27006KT 4SM OVC003 M16/M18 A3020 RMK AO1 SLP295
SPECI CYNL 201054Z AUTO 28008KT 2 1/2SM OVC003 M16/M18 A3020 RMK AO1 SLP295
SPECI CYNL 201053Z AUTO 28010KT 3SM OVC003 M16/M18 A3020 RMK AO1 SLP295
SPECI CYNL 201052Z AUTO 29009KT 2 1/2SM OVC003 M16/M18 A3020 RMK AO1 SLP295
SPECI CYNL 201031Z AUTO 29007KT 3SM OVC003 M16/M18 A3021 RMK AO1 SLP296
SPECI CYNL 201030Z AUTO 29008KT 2 1/2SM OVC003 M16/M18 A3021 RMK AO1 SLP295
METAR CYNL 201000Z AUTO 29006KT 5SM OVC003 M16/M19 A3020 RMK AO1 SLP294
METAR CYNL 200900Z AUTO ///// 3SM OVC003 M17/M20 A3020 RMK AO1 SLP295
SPECI CYNL 200857Z AUTO ///// 3SM OVC003 M18/M20 A3020 RMK AO1 SLP293
SPECI CYNL 200856Z AUTO ///// 2 1/2SM OVC003 M18/M20 A3020 RMK AO1 SLP293
SPECI CYNL 200854Z AUTO ///// 1 3/4SM OVC003 M18/M20 A3020 RMK AO1 SLP293
SPECI CYNL 200848Z AUTO ///// 2 1/2SM OVC003 M18/M20 A3020 RMK AO1 SLP293
SPECI CYNL 200845Z AUTO 30008KT 3SM OVC003 M18/M21 A3020 RMK AO1 SLP293
SPECI CYNL 200839Z AUTO 31008KT 2 1/2SM OVC003 M18/M21 A3020 RMK AO1 SLP293
SPECI CYNL 200837Z AUTO 30007KT 3SM OVC003 M18/M21 A3020 RMK AO1 SLP293
SPECI CYNL 200836Z AUTO 30008KT 2 1/2SM OVC003 M18/M21 A3020 RMK AO1 SLP293
SPECI CYNL 200834Z AUTO ///// 2 1/2SM OVC002 M18/M21 A3020 RMK AO1 SLP293
SPECI CYNL 200830Z AUTO ///// 3SM OVC002 M18/M21 A3020 RMK AO1 SLP293
SPECI CYNL 200821Z AUTO 30008KT 2 1/2SM OVC002 M18/M21 A3020 RMK AO1 SLP294
SPECI CYNL 200820Z AUTO 30008KT 3SM OVC002 M18/M21 A3020 RMK AO1 SLP294
SPECI CYNL 200815Z AUTO 30006KT 2SM OVC002 M19/M21 A3020 RMK AO1 SLP294
SPECI CYNL 200806Z AUTO 30008KT 1 1/2SM OVC002 M19/M22 A3020 RMK AO1 SLP295
METAR CYNL 200800Z AUTO 30008KT 1 1/4SM OVC002 M19/M22 A3020 RMK AO1 SLP295
SPECI CYNL 200758Z AUTO 29007KT 1 1/4SM OVC002 M19/M22 A3020 RMK AO1 SLP294
SPECI CYNL 200756Z AUTO ///// 1 3/4SM OVC002 M19/M22 A3020 RMK AO1 SLP294
SPECI CYNL 200755Z AUTO ///// 2SM OVC003 M19/M22 A3020 RMK AO1 SLP294
SPECI CYNL 200752Z AUTO ///// 1 1/2SM OVC003 M20/M22 A3020 RMK AO1 SLP295
SPECI CYNL 200750Z AUTO ///// 1 1/4SM OVC003 M20/M23 A3020 RMK AO1 SLP295
SPECI CYNL 200747Z AUTO ///// 1 1/2SM BKN003 OVC006 M20/M23 A3020 RMK AO1 SLP295
SPECI CYNL 200744Z AUTO ///// 1 1/4SM BKN003 BKN005 OVC007 M20/M23 A3020 RMK AO1 SLP295
SPECI CYNL 200740Z AUTO ///// 2 1/2SM BKN003 BKN006 M20/M23 A3020 RMK AO1 SLP296
SPECI CYNL 200733Z AUTO ///// 9SM SCT003 BKN006 M21/M24 A3020 RMK AO1 SLP297
SPECI CYNL 200732Z AUTO ///// 9SM BKN004 M21/M24 A3020 RMK AO1 SLP297
SPECI CYNL 200725Z AUTO ///// 9SM SCT005 BKN007 M21/M24 A3019 RMK AO1 SLP296
SPECI CYNL 200704Z AUTO 26003KT 9SM FEW007 M22/M26 A3019 RMK AO1 SLP296
METAR CYNL 200700Z AUTO 27003KT 9SM CLR M22/M25 A3019 RMK AO1 SLP296
METAR CYNL 200600Z AUTO ///// 9SM CLR M22/M25 A3019 RMK AO1 SLP295
METAR CYNL 200500Z AUTO ///// 9SM CLR M22/M25 A3018 RMK AO1 SLP293
METAR CYNL 200400Z AUTO 29004KT 9SM CLR M22/M25 A3017 RMK AO1 SLP289
METAR CYNL 200300Z AUTO 28003KT 9SM CLR M21/M24 A3015 RMK AO1 SLP283
METAR CYNL 200200Z AUTO ///// 9SM CLR M19/M22 A3013 RMK AO1 SLP276
METAR CYNL 200100Z AUTO 33005KT 9SM CLR M18/M21 A3012 RMK AO1 SLP268
METAR CYNL 200000Z AUTO ///// 9SM CLR M17/M20 A3010 RMK AO1 PRESRR SLP260
SPECI CYNL 192332Z AUTO ///// 9SM SCT008 M16/M19 A3009 RMK AO1 PRESRR SLP254
METAR CYNL 192300Z AUTO 32007KT 9SM OVC008 M16/M18 A3008 RMK AO1 PRESRR SLP248
SPECI CYNL 192228Z AUTO 31005KT 9SM BKN009 M16/M19 A3007 RMK AO1 PRESRR SLP245
SPECI CYNL 192216Z AUTO 31005KT 9SM FEW008 M16/M19 A3006 RMK AO1 PRESRR SLP243
METAR CYNL 192200Z AUTO 31005KT 9SM CLR M15/M18 A3006 RMK AO1 PRESRR SLP240
METAR CYNL 192100Z AUTO 31004KT 9SM CLR M14/M17 A3003 RMK AO1 PRESRR SLP228
METAR CYNL 192000Z AUTO 32006KT 9SM FEW013 BKN082 M13/M17 A3000 RMK AO1 PRESRR SLP217
SPECI CYNL 191927Z AUTO 35006KT 9SM FEW005 BKN080 M13/M17 A2998 RMK AO1 PRESRR SLP209
METAR CYNL 191900Z AUTO 35005KT 9SM FEW082 M13/M17 A2997 RMK AO1 PRESRR SLP207
METAR CYNL 191800Z AUTO 35009KT 9SM FEW056 M14/M18 A2994 RMK AO1 PRESRR SLP199
METAR CYNL 191700Z AUTO 34008KT 9SM CLR M15/M18 A2992 RMK AO1 PRESRR SLP191
SPECI CYNL 191624Z AUTO 33006KT 9SM FEW007 M16/M19 A2990 RMK AO1 PRESRR SLP188
METAR CYNL 191600Z AUTO 33008KT 9SM CLR M16/M19 A2988 RMK AO1 PRESRR SLP181
METAR CYNL 191500Z AUTO ///// 9SM CLR M17/M19 A2985 RMK AO1 PRESRR SLP171
METAR CYNL 191400Z AUTO 32005KT 9SM SCT006 M16/M18 A2982 RMK AO1 PRESRR SLP159
SPECI CYNL 191355Z AUTO 32005KT 9SM SCT006 M16/M18 A2982 RMK AO1 PRESRR SLP158
METAR CYNL 191300Z AUTO 32004KT 9SM VV008 M14/M17 A2980 RMK AO1 PRESRR SLP149
METAR CYNL 191200Z AUTO 33006KT 8SM VV007 M13/M16 A2976 RMK AO1 PRESRR SLP133
SPECI CYNL 191150Z AUTO 33006KT 5SM VV009 M13/M16 A2975 RMK AO1 PRESRR SLP131
SPECI CYNL 191128Z AUTO 33004KT 5SM VV014 M13/M16 A2974 RMK AO1 PRESRR SLP128
SPECI CYNL 191102Z AUTO 33006KT 5SM VV024 M13/M16 A2973 RMK AO1 PRESRR SLP126
SPECI CYNL 191101Z AUTO 33005KT 5SM VV025 M13/M16 A2973 RMK AO1 PRESRR SLP126
METAR CYNL 191100Z AUTO 34007KT 5SM VV024 M13/M16 A2973 RMK AO1 PRESRR SLP125
SPECI CYNL 191050Z AUTO 32005KT 4SM VV015 M13/M16 A2973 RMK AO1 PRESRR SLP124
SPECI CYNL 191042Z AUTO 33006KT 4SM VV010 M13/M15 A2973 RMK AO1 PRESRR SLP123
SPECI CYNL 191041Z AUTO 33006KT 4SM VV009 M13/M15 A2973 RMK AO1 PRESRR SLP123
SPECI CYNL 191019Z AUTO 32006KT 4SM VV014 M13/M15 A2972 RMK AO1 PRESRR SLP119
SPECI CYNL 191012Z AUTO 32005KT 5SM VV015 M13/M15 A2971 RMK AO1 PRESRR SLP117
SPECI CYNL 191009Z AUTO 32005KT 5SM VV014 M13/M15 A2971 RMK AO1 PRESRR SLP118
METAR CYNL 191000Z AUTO 32006KT 4SM VV018 M13/M15 A2971 RMK AO1 PRESRR SLP116
SPECI CYNL 190942Z AUTO 32006KT 5SM VV024 M13/M15 A2970 RMK AO1 PRESRR SLP113
SPECI CYNL 190928Z AUTO 30005KT 7SM VV029 M13/M15 A2970 RMK AO1 PRESRR SLP112
SPECI CYNL 190926Z AUTO 31004KT 6SM VV030 M13/M15 A2970 RMK AO1 PRESRR SLP112
SPECI CYNL 190922Z AUTO 30004KT 6SM VV026 M13/M15 A2970 RMK AO1 PRESRR SLP111
SPECI CYNL 190915Z AUTO 30004KT 6SM VV015 M13/M15 A2969 RMK AO1 PRESRR SLP110
SPECI CYNL 190911Z AUTO 30004KT 6SM VV014 M13/M15 A2969 RMK AO1 PRESRR SLP109
METAR CYNL 190900Z AUTO 30004KT 9SM VV020 M13/M15 A2968 RMK AO1 PRESRR SLP107
SPECI CYNL 190857Z AUTO 31004KT 9SM VV016 M13/M15 A2968 RMK AO1 SLP105
SPECI CYNL 190849Z AUTO 31004KT 6SM VV014 M13/M15 A2968 RMK AO1 SLP104
SPECI CYNL 190845Z AUTO 32003KT 9SM VV015 M13/M15 A2967 RMK AO1 SLP104
SPECI CYNL 190844Z AUTO 32004KT 9SM VV014 M13/M15 A2967 RMK AO1 SLP103
SPECI CYNL 190843Z AUTO 31004KT 9SM VV015 M13/M15 A2967 RMK AO1 SLP103
SPECI CYNL 190838Z AUTO 32004KT 8SM VV014 M13/M15 A2967 RMK AO1 SLP102
SPECI CYNL 190837Z AUTO 32003KT 8SM VV015 M13/M15 A2967 RMK AO1 SLP102
SPECI CYNL 190835Z AUTO 32003KT 7SM VV014 M13/M15 A2967 RMK AO1 SLP101
METAR CYNL 190800Z AUTO 32003KT 9SM VV017 M13/M15 A2966 RMK AO1 SLP097
SPECI CYNL 190755Z AUTO 32002KT 7SM VV015 M13/M15 A2965 RMK AO1 SLP097
SPECI CYNL 190750Z AUTO 31002KT 4SM VV010 M13/M15 A2965 RMK AO1 SLP096
SPECI CYNL 190743Z AUTO 30002KT 5SM VV009 M13/M15 A2965 RMK AO1 SLP095
SPECI CYNL 190727Z AUTO 00000KT 3SM VV013 M13/M15 A2964 RMK AO1 SLP092
SPECI CYNL 190725Z AUTO 00000KT 2 1/2SM VV014 M13/M15 A2964 RMK AO1 SLP092
SPECI CYNL 190724Z AUTO 00000KT 3SM VV015 M13/M15 A2964 RMK AO1 SLP092
SPECI CYNL 190720Z AUTO 00000KT 2 1/2SM VV016 M13/M15 A2964 RMK AO1 SLP092
SPECI CYNL 190719Z AUTO 32002KT 3SM VV017 M13/M15 A2964 RMK AO1 SLP092
SPECI CYNL 190716Z AUTO 00000KT 2 1/2SM VV018 M13/M15 A2964 RMK AO1 SLP092
SPECI CYNL 190711Z AUTO 31002KT 3SM VV020 M13/M15 A2964 RMK AO1 SLP091
SPECI CYNL 190708Z AUTO 31002KT 2 1/2SM VV021 M13/M15 A2964 RMK AO1 SLP091
SPECI CYNL 190707Z AUTO 31002KT 3SM VV022 M13/M15 A2964 RMK AO1 SLP091
SPECI CYNL 190704Z AUTO 32002KT 2 1/2SM VV022 M13/M15 A2964 RMK AO1 SLP090
METAR CYNL 190700Z AUTO 32002KT 4SM VV023 M13/M15 A2963 RMK AO1 SLP090
SPECI CYNL 190657Z AUTO 32002KT 5SM VV024 M13/M15 A2963 RMK AO1 SLP090
SPECI CYNL 190635Z AUTO 00000KT 6SM VV028 M13/M15 A2963 RMK AO1 SLP088
SPECI CYNL 190615Z AUTO 00000KT 6SM VV030 M13/M15 A2963 RMK AO1 SLP087
SPECI CYNL 190605Z AUTO 00000KT 5SM VV025 M13/M15 A2963 RMK AO1 SLP086
METAR CYNL 190600Z AUTO 00000KT 6SM VV023 M13/M15 A2962 RMK AO1 SLP086
SPECI CYNL 190540Z AUTO 00000KT 3SM VV018 M13/M15 A2962 RMK AO1 SLP085
SPECI CYNL 190536Z AUTO 00000KT 2 1/2SM VV017 M13/M15 A2962 RMK AO1 SLP085
SPECI CYNL 190535Z AUTO 00000KT 3SM VV016 M13/M15 A2962 RMK AO1 SLP085
SPECI CYNL 190534Z AUTO 00000KT 2 1/2SM VV016 M13/M15 A2962 RMK AO1 SLP085
SPECI CYNL 190533Z AUTO 00000KT 3SM VV016 M13/M15 A2962 RMK AO1 SLP085
SPECI CYNL 190531Z AUTO 00000KT 2 1/2SM VV016 M13/M15 A2962 RMK AO1 SLP085
SPECI CYNL 190530Z AUTO 00000KT 3SM VV016 M13/M15 A2962 RMK AO1 SLP085
SPECI CYNL 190529Z AUTO 00000KT 2 1/2SM VV015 M13/M15 A2962 RMK AO1 SLP085
SPECI CYNL 190528Z AUTO 00000KT 3SM VV015 M13/M15 A2962 RMK AO1 SLP085
SPECI CYNL 190524Z AUTO 00000KT 2 1/2SM VV016 M13/M15 A2962 RMK AO1 SLP084
SPECI CYNL 190513Z AUTO 00000KT 4SM FEW003 SCT016 BKN023 M13/M15 A2962 RMK AO1 SLP084
SPECI CYNL 190509Z AUTO 00000KT 7SM VV024 M13/M15 A2962 RMK AO1 SLP083
SPECI CYNL 190507Z AUTO 00000KT 7SM VV026 M13/M15 A2962 RMK AO1 SLP083
SPECI CYNL 190504Z AUTO 00000KT 5SM VV036 M13/M15 A2962 RMK AO1 SLP084
SPECI CYNL 190503Z AUTO 00000KT 6SM FEW004 BKN016 BKN028 M13/M15 A2962 RMK AO1 SLP084
METAR CYNL 190500Z AUTO 00000KT 7SM VV030 M13/M15 A2962 RMK AO1 SLP084
SPECI CYNL 190459Z AUTO 00000KT 6SM VV027 M13/M15 A2962 RMK AO1 SLP084
METAR CYNL 190400Z AUTO 02002KT 5SM VV017 M12/M15 A2961 RMK AO1 SLP082
SPECI CYNL 190302Z AUTO 00000KT 8SM VV024 M12/M15 A2961 RMK AO1 SLP081
METAR CYNL 190300Z AUTO 00000KT 9SM VV028 M12/M15 A2961 RMK AO1 SLP081
SPECI CYNL 190218Z AUTO 00000KT 9SM FEW006 OVC036 M12/M15 A2960 RMK AO1 SLP077
METAR CYNL 190200Z AUTO 00000KT 9SM FEW012 SCT028 OVC038 M12/M15 A2960 RMK AO1 SLP077
SPECI CYNL 190126Z AUTO 00000KT 8SM VV032 M12/M15 A2959 RMK AO1 SLP074
SPECI CYNL 190124Z AUTO 00000KT 8SM VV026 M12/M15 A2959 RMK AO1 SLP074
SPECI CYNL 190118Z AUTO 00000KT 8SM VV021 M12/M15 A2959 RMK AO1 SLP073
SPECI CYNL 190115Z AUTO 05002KT 7SM FEW020 BKN027 OVC042 M12/M15 A2959 RMK AO1 SLP073
SPECI CYNL 190113Z AUTO 06002KT 7SM VV024 M12/M15 A2959 RMK AO1 SLP073
SPECI CYNL 190103Z AUTO 00000KT 6SM VV028 M12/M15 A2959 RMK AO1 SLP073
METAR CYNL 190100Z AUTO 06002KT 8SM FEW016 BKN031 OVC042 M12/M15 A2959 RMK AO1 SLP073
SPECI CYNL 190046Z AUTO 07003KT 7SM VV031 M12/M15 A2959 RMK AO1 SLP074
SPECI CYNL 190044Z AUTO 07002KT 7SM VV026 M12/M15 A2959 RMK AO1 SLP074
SPECI CYNL 190014Z AUTO 00000KT 7SM VV023 M12/M15 A2959 RMK AO1 SLP075
SPECI CYNL 190012Z AUTO 00000KT 8SM VV028 M12/M15 A2959 RMK AO1 SLP074
SPECI CYNL 190009Z AUTO 00000KT 9SM VV032 M12/M15 A2959 RMK AO1 SLP074
SPECI CYNL 190007Z AUTO 07002KT 7SM VV026 M12/M15 A2959 RMK AO1 SLP074
SPECI CYNL 190004Z AUTO 08003KT 9SM VV016 M12/M15 A2959 RMK AO1 SLP074
METAR CYNL 190000Z AUTO 07003KT 9SM VV012 M12/M15 A2958 RMK AO1 SLP073
SPECI CYNL 182354Z AUTO 06002KT 9SM VV014 M12/M15 A2958 RMK AO1 PRESRR SLP073
SPECI CYNL 182352Z AUTO 06002KT 7SM VV015 M12/M15 A2958 RMK AO1 PRESRR SLP073
SPECI CYNL 182315Z AUTO 08003KT 7SM SCT003 OVC034 M12/M15 A2958 RMK AO1 PRESRR SLP071
SPECI CYNL 182313Z AUTO 08003KT 8SM BKN003 OVC034 M12/M15 A2958 RMK AO1 PRESRR SLP071
SPECI CYNL 182303Z AUTO 08003KT 7SM SCT003 OVC034 M12/M15 A2958 RMK AO1 PRESRR SLP071
SPECI CYNL 182302Z AUTO 07003KT 8SM SCT003 BKN006 OVC034 M12/M15 A2958 RMK AO1 PRESRR SLP071
METAR CYNL 182300Z AUTO 07005KT 7SM BKN003 OVC034 M12/M15 A2958 RMK AO1 PRESRR SLP071
SPECI CYNL 182256Z AUTO 08004KT 8SM BKN003 OVC034 M12/M15 A2958 RMK AO1 SLP071
SPECI CYNL 182229Z AUTO 08004KT 9SM FEW004 SCT005 OVC034 M12/M15 A2957 RMK AO1 SLP067
SPECI CYNL 182221Z AUTO 08006KT 9SM SCT004 BKN005 OVC034 M12/M15 A2956 RMK AO1 SLP065
SPECI CYNL 182220Z AUTO 08006KT 9SM BKN004 OVC034 M12/M15 A2956 RMK AO1 SLP065
SPECI CYNL 182218Z AUTO 08006KT 9SM SCT004 BKN009 OVC034 M12/M15 A2956 RMK AO1 SLP064
METAR CYNL 182200Z AUTO 08006KT 8SM FEW004 OVC034 M12/M14 A2955 RMK AO1 SLP062
SPECI CYNL 182133Z AUTO 08006KT 6SM FEW003 SCT006 OVC035 M12/M14 A2955 RMK AO1 SLP061
SPECI CYNL 182128Z AUTO 09005KT 6SM SCT003 BKN016 OVC036 M12/M15 A2955 RMK AO1 SLP062
SPECI CYNL 182127Z AUTO 09006KT 6SM SCT003 BKN012 BKN016 M12/M15 A2955 RMK AO1 SLP061
SPECI CYNL 182126Z AUTO 08006KT 6SM SCT003 BKN015 OVC036 M12/M15 A2955 RMK AO1 SLP062
SPECI CYNL 182121Z AUTO 08005KT 5SM SCT003 BKN006 OVC015 M12/M14 A2956 RMK AO1 SLP063
SPECI CYNL 182117Z AUTO 08005KT 3SM SCT003 OVC015 M12/M14 A2956 RMK AO1 SLP063
SPECI CYNL 182115Z AUTO 08005KT 2SM SCT003 BKN006 OVC015 M12/M14 A2956 RMK AO1 SLP064
SPECI CYNL 182114Z AUTO 08005KT 2 1/2SM SCT003 OVC015 M12/M14 A2956 RMK AO1 SLP064
METAR CYNL 182100Z AUTO 09005KT 4SM SCT003 BKN006 BKN014 M12/M14 A2956 RMK AO1 SLP063
SPECI CYNL 182058Z AUTO 09004KT 5SM SCT003 BKN006 BKN014 M12/M14 A2956 RMK AO1 SLP063
SPECI CYNL 182057Z AUTO 09004KT 5SM VV015 M12/M14 A2956 RMK AO1 SLP064
SPECI CYNL 182056Z AUTO 09003KT 5SM SCT003 BKN006 BKN014 M12/M14 A2956 RMK AO1 SLP064
SPECI CYNL 182024Z AUTO 09004KT 7SM BKN003 BKN005 OVC013 M12/M14 A2956 RMK AO1 SLP063
SPECI CYNL 182021Z AUTO 09005KT 2SM BKN003 BKN005 OVC013 M12/M14 A2956 RMK AO1 SLP063
SPECI CYNL 182016Z AUTO 09006KT 6SM BKN003 OVC012 M12/M15 A2955 RMK AO1 SLP062
SPECI CYNL 182013Z AUTO 09006KT 2 1/2SM BKN003 OVC005 M12/M14 A2955 RMK AO1 SLP061
METAR CYNL 182000Z AUTO 08006KT 5SM OVC003 M12/M14 A2955 RMK AO1 SLP060
SPECI CYNL 181958Z AUTO 08007KT 5SM OVC003 M12/M14 A2955 RMK AO1 SLP060
SPECI CYNL 181949Z AUTO 09006KT 6SM BKN002 OVC005 M12/M14 A2955 RMK AO1 PRESFR SLP059
SPECI CYNL 181946Z AUTO 08007KT 2 1/2SM BKN002 OVC005 M12/M14 A2955 RMK AO1 PRESFR SLP059
SPECI CYNL 181942Z AUTO 08007KT 4SM BKN002 OVC005 M12/M14 A2955 RMK AO1 PRESFR SLP059
SPECI CYNL 181939Z AUTO 09006KT 1 3/4SM OVC003 M12/M14 A2955 RMK AO1 PRESFR SLP060
SPECI CYNL 181902Z AUTO 11007KT 7SM BKN003 OVC005 M11/M14 A2955 RMK AO1 PRESFR SLP060
METAR CYNL 181900Z AUTO 09007KT 2SM BKN003 OVC005 M11/M14 A2955 RMK AO1 PRESFR SLP060
SPECI CYNL 181859Z AUTO 10006KT 2 1/2SM BKN003 OVC005 M11/M14 A2955 RMK AO1 PRESFR SLP060
SPECI CYNL 181843Z AUTO 09007KT 6SM OVC003 M12/M14 A2956 RMK AO1 SLP062
SPECI CYNL 181802Z AUTO 10007KT 3SM OVC002 M12/M14 A2957 RMK AO1 SLP068
METAR CYNL 181800Z AUTO 10007KT 2 1/2SM OVC002 M12/M14 A2957 RMK AO1 SLP068
SPECI CYNL 181759Z AUTO 10007KT 2SM OVC002 M12/M14 A2957 RMK AO1 SLP068
SPECI CYNL 181743Z AUTO 11006KT 6SM BKN002 OVC005 M12/M15 A2958 RMK AO1 SLP070
SPECI CYNL 181736Z AUTO 10006KT 5SM BKN003 OVC014 M12/M15 A2958 RMK AO1 SLP070
SPECI CYNL 181728Z AUTO 12007KT 5SM BKN002 OVC004 M12/M15 A2958 RMK AO1 SLP070
METAR CYNL 181700Z AUTO 12009KT 5SM OVC003 M12/M15 A2957 RMK AO1 SLP069
SPECI CYNL 181646Z AUTO 11008KT 5SM OVC003 M12/M15 A2957 RMK AO1 SLP070
SPECI CYNL 181618Z AUTO 11009KT 3SM BKN002 OVC017 M12/M15 A2958 RMK AO1 SLP070
SPECI CYNL 181615Z AUTO 11008KT 2 1/2SM BKN002 OVC017 M12/M15 A2958 RMK AO1 SLP071
SPECI CYNL 181613Z AUTO 11009KT 3SM BKN002 OVC017 M12/M15 A2958 RMK AO1 SLP071
SPECI CYNL 181606Z AUTO 10008KT 2SM BKN002 OVC016 M12/M15 A2958 RMK AO1 SLP071
SPECI CYNL 181603Z AUTO 11008KT 2SM BKN003 OVC016 M12/M15 A2958 RMK AO1 SLP073
METAR CYNL 181600Z AUTO 10007KT 2SM SCT003 BKN015 OVC018 M12/M15 A2958 RMK AO1 SLP072
SPECI CYNL 181559Z AUTO 11007KT 2SM SCT003 OVC015 M12/M15 A2958 RMK AO1 SLP072
SPECI CYNL 181549Z AUTO 11011KT 2SM FEW002 BKN014 OVC017 M12/M15 A2958 RMK AO1 SLP072
SPECI CYNL 181547Z AUTO 10009KT 2SM VV016 M12/M15 A2958 RMK AO1 SLP071
SPECI CYNL 181542Z AUTO 11008KT 1 1/2SM VV015 M12/M15 A2958 RMK AO1 SLP071
SPECI CYNL 181508Z AUTO 11009KT 1SM VV011 M12/M15 A2959 RMK AO1 SLP074
SPECI CYNL 181504Z AUTO 11009G15KT 3/4SM VV010 M12/M15 A2959 RMK AO1 SLP075
METAR CYNL 181500Z AUTO 11009G15KT 1/2SM VV008 M12/M15 A2959 RMK AO1 SLP076
SPECI CYNL 181427Z AUTO 11010G16KT 5/8SM VV009 M12/M15 A2960 RMK AO1 PRESFR SLP079
SPECI CYNL 181425Z AUTO 11010G16KT 5/8SM VV010 M12/M15 A2960 RMK AO1 PRESFR SLP079
SPECI CYNL 181417Z AUTO 10010KT 3/4SM VV011 M12/M15 A2960 RMK AO1 PRESFR SLP078
SPECI CYNL 181404Z AUTO 10012KT 1SM VV011 M12/M15 A2960 RMK AO1 PRESFR SLP079
SPECI CYNL 181401Z AUTO 11010G16KT 3/4SM VV011 M12/M15 A2960 RMK AO1 PRESFR SLP080
METAR CYNL 181400Z AUTO 11012KT 1SM VV011 M12/M15 A2960 RMK AO1 PRESFR SLP080
SPECI CYNL 181354Z AUTO 10011KT 1SM VV010 M12/M15 A2960 RMK AO1 PRESFR SLP080
SPECI CYNL 181353Z AUTO 10011KT 3/4SM VV010 M12/M15 A2960 RMK AO1 PRESFR SLP081
SPECI CYNL 181337Z AUTO 10010G16KT 5/8SM VV009 M12/M15 A2961 RMK AO1 PRESFR SLP084
SPECI CYNL 181330Z AUTO 10012KT 3/4SM VV008 M12/M15 A2962 RMK AO1 PRESFR SLP085
METAR CYNL 181300Z AUTO 11012KT 3/8SM VV006 M12/M15 A2963 RMK AO1 PRESFR SLP089
METAR CYNL 181200Z AUTO ///// 3/8SM VV007 M12/M15 A2967 RMK AO1 PRESFR SLP102
SPECI CYNL 181141Z AUTO ///// 1/4SM VV005 M12/M15 A2967 RMK AO1 PRESFR SLP105
SPECI CYNL 181135Z AUTO ///// 1/4SM VV004 M12/M15 A2968 RMK AO1 PRESFR SLP106
SPECI CYNL 181127Z AUTO ///// 3/8SM VV005 M12/M15 A2968 RMK AO1 PRESFR SLP107
SPECI CYNL 181121Z AUTO 10011KT 1/4SM VV004 M12/M15 A2969 RMK AO1 PRESFR SLP110
METAR CYNL 181100Z AUTO 10012G18KT 3/8SM VV006 M12/M15 A2971 RMK AO1 PRESFR SLP118
METAR CYNL 181000Z AUTO 10011KT 5/8SM VV008 M12/M15 A2974 RMK AO1 PRESFR SLP126
SPECI CYNL 180955Z AUTO 10011KT 5/8SM VV009 M12/M15 A2974 RMK AO1 PRESFR SLP126
SPECI CYNL 180951Z AUTO 10013KT 3/4SM VV009 M12/M15 A2975 RMK AO1 PRESFR SLP128
SPECI CYNL 180939Z AUTO 10010G16KT 1SM VV009 M12/M15 A2975 RMK AO1 PRESFR SLP129
SPECI CYNL 180937Z AUTO 10011G16KT 3/4SM VV009 M12/M15 A2975 RMK AO1 PRESFR SLP129
SPECI CYNL 180934Z AUTO 10012KT 1SM VV009 M12/M15 A2975 RMK AO1 PRESFR SLP130
SPECI CYNL 180928Z AUTO 10011KT 3/4SM VV009 M12/M15 A2976 RMK AO1 PRESFR SLP131
SPECI CYNL 180919Z AUTO 10012KT 1 1/4SM VV011 M12/M15 A2976 RMK AO1 PRESFR SLP132
METAR CYNL 180900Z AUTO 11009G16KT 1 3/4SM VV012 M12/M15 A2977 RMK AO1 PRESFR SLP136
SPECI CYNL 180857Z AUTO 11011G16KT 1 3/4SM VV012 M12/M15 A2977 RMK AO1 PRESFR SLP136
SPECI CYNL 180838Z AUTO 11009G15KT 2SM VV013 M12/M15 A2978 RMK AO1 PRESFR SLP140
SPECI CYNL 180835Z AUTO 11011KT 1 3/4SM VV014 M12/M15 A2979 RMK AO1 PRESFR SLP140
SPECI CYNL 180831Z AUTO 11010G17KT 1 3/4SM VV017 M12/M15 A2979 RMK AO1 PRESFR SLP142
SPECI CYNL 180813Z AUTO 12010G18KT 2 1/2SM VV019 M12/M15 A2980 RMK AO1 PRESFR SLP145
SPECI CYNL 180810Z AUTO 12013KT 4SM VV015 M12/M15 A2980 RMK AO1 PRESFR SLP145
SPECI CYNL 180807Z AUTO 12012G18KT 5SM VV010 M12/M15 A2980 RMK AO1 PRESFR SLP146
METAR CYNL 180800Z AUTO 11012KT 5SM VV007 M12/M15 A2981 RMK AO1 PRESFR SLP148
SPECI CYNL 180753Z AUTO 12012KT 4SM VV009 M12/M15 A2981 RMK AO1 PRESFR SLP149
SPECI CYNL 180746Z AUTO 12011G18KT 3SM VV014 M12/M15 A2981 RMK AO1 PRESFR SLP150
SPECI CYNL 180743Z AUTO 12014KT 3SM VV015 M12/M15 A2981 RMK AO1 PRESFR SLP150
SPECI CYNL 180735Z AUTO 12011G16KT 3SM VV014 M12/M15 A2982 RMK AO1 PRESFR SLP151
SPECI CYNL 180731Z AUTO 12012KT 3SM VV015 M12/M15 A2982 RMK AO1 PRESFR SLP153
SPECI CYNL 180725Z AUTO 12012KT 4SM VV010 M12/M15 A2983 RMK AO1 PRESFR SLP155
SPECI CYNL 180721Z AUTO 12014KT 5SM FEW009 M12/M15 A2983 RMK AO1 PRESFR SLP156
METAR CYNL 180700Z AUTO 12010G17KT 9SM CLR M12/M15 A2985 RMK AO1 PRESFR SLP163
METAR CYNL 180600Z AUTO 12009G17KT 9SM CLR M12/M15 A2990 RMK AO1 PRESFR SLP182
METAR CYNL 180500Z AUTO 13011G20KT 9SM CLR M12/M16 A2993 RMK AO1 PRESFR SLP193
METAR CYNL 180400Z AUTO 14010G17KT 9SM CLR M12/M16 A2997 RMK AO1 SLP208
METAR CYNL 180300Z AUTO 14008KT 9SM CLR M13/M16 A2999 RMK AO1 SLP215
METAR CYNL 180200Z AUTO 13009KT 9SM BKN140 M13/M16 A3001 RMK AO1 PRESFR SLP222
METAR CYNL 180100Z AUTO 15007KT 9SM FEW150 M13/M16 A3006 RMK AO1 SLP238
METAR CYNL 180000Z AUTO 14006KT 9SM BKN160 M13/M16 A3008 RMK AO1 PRESFR SLP246
METAR CYNL 172300Z AUTO 16006KT 9SM OVC098 M12/M15 A3012 RMK AO1 PRESFR SLP259
METAR CYNL 172200Z AUTO 18006KT 9SM OVC100 M11/M15 A3015 RMK AO1 PRESFR SLP267
METAR CYNL 172100Z AUTO 17006KT 9SM BKN100 M11/M14 A3017 RMK AO1 PRESFR SLP274
SPECI CYNL 172013Z AUTO 17005KT 9SM SCT026 BKN110 M11/M14 A3018 RMK AO1 SLP279
METAR CYNL 172000Z AUTO 17007KT 9SM BKN026 OVC110 M11/M14 A3019 RMK AO1 SLP281
SPECI CYNL 171933Z AUTO 16005KT 9SM FEW005 SCT019 BKN025 M11/M14 A3019 RMK AO1 SLP282
SPECI CYNL 171930Z AUTO 17005KT 9SM SCT019 OVC024 M11/M14 A3019 RMK AO1 SLP282
SPECI CYNL 171925Z AUTO 16004KT 9SM FEW018 OVC025 M11/M14 A3020 RMK AO1 SLP283
METAR CYNL 171900Z AUTO 16002KT 9SM OVC024 M11/M14 A3021 RMK AO1 SLP286
SPECI CYNL 171850Z AUTO 19003KT 9SM OVC024 M11/M14 A3021 RMK AO1 SLP289
SPECI CYNL 171828Z AUTO 18003KT 9SM OVC025 M11/M14 A3021 RMK AO1 SLP288
METAR CYNL 171800Z AUTO 19005KT 9SM OVC024 M12/M14 A3022 RMK AO1 SLP294
SPECI CYNL 171752Z AUTO 18004KT 9SM OVC024 M12/M14 A3022 RMK AO1 SLP294
METAR CYNL 171700Z AUTO 21003KT 9SM OVC026 M12/M15 A3024 RMK AO1 SLP300
METAR CYNL 171600Z AUTO 25003KT 9SM FEW010 OVC028 M13/M15 A3025 RMK AO1 SLP303
SPECI CYNL 171545Z AUTO 25004KT 9SM SCT010 OVC027 M13/M16 A3025 RMK AO1 SLP304
METAR CYNL 171500Z AUTO 24003KT 9SM BKN012 OVC025 M13/M16 A3026 RMK AO1 SLP309
SPECI CYNL 171438Z AUTO 22002KT 9SM BKN012 OVC028 M13/M16 A3027 RMK AO1 SLP311
SPECI CYNL 171432Z AUTO 22003KT 9SM SCT013 BKN016 OVC029 M13/M16 A3027 RMK AO1 SLP312
SPECI CYNL 171425Z AUTO 25002KT 9SM SCT016 OVC029 M13/M16 A3027 RMK AO1 SLP313
METAR CYNL 171400Z AUTO 25005KT 9SM OVC032 M14/M16 A3027 RMK AO1 SLP313
SPECI CYNL 171313Z AUTO 00000KT 9SM OVC030 M14/M16 A3026 RMK AO1 SLP310
METAR CYNL 171300Z AUTO 24003KT 9SM OVC028 M14/M16 A3027 RMK AO1 SLP312
SPECI CYNL 171244Z AUTO 25004KT 9SM OVC029 M14/M16 A3027 RMK AO1 SLP314
METAR CYNL 171200Z AUTO 25004KT 9SM OVC033 M14/M16 A3028 RMK AO1 SLP315
METAR CYNL 171100Z AUTO 22002KT 9SM OVC032 M14/M16 A3028 RMK AO1 SLP316
METAR CYNL 171000Z AUTO 27003KT 9SM OVC034 M13/M16 A3028 RMK AO1 SLP317
METAR CYNL 170900Z AUTO 27004KT 9SM OVC036 M13/M16 A3029 RMK AO1 SLP321
METAR CYNL 170800Z AUTO 27004KT 9SM OVC037 M13/M16 A3029 RMK AO1 SLP320
METAR CYNL 170700Z AUTO 29004KT 9SM OVC036 M13/M16 A3028 RMK AO1 SLP317
METAR CYNL 170600Z AUTO 26007KT 9SM OVC033 M13/M16 A3027 RMK AO1 SLP315
METAR CYNL 170500Z AUTO 28005KT 9SM OVC032 M13/M16 A3026 RMK AO1 SLP310
SPECI CYNL 170416Z AUTO 28005KT 9SM SCT009 OVC032 M13/M15 A3026 RMK AO1 SLP310
METAR CYNL 170400Z AUTO 28004KT 9SM SCT010 OVC032 M13/M15 A3025 RMK AO1 SLP308
SPECI CYNL 170354Z AUTO 28006KT 9SM SCT010 OVC032 M13/M15 A3025 RMK AO1 SLP309
METAR CYNL 170300Z AUTO 29005KT 9SM OVC010 M13/M15 A3024 RMK AO1 SLP306
SPECI CYNL 170214Z AUTO 29004KT 9SM BKN011 OVC033 M13/M15 A3024 RMK AO1 SLP307
METAR CYNL 170200Z AUTO 29005KT 9SM FEW011 OVC032 M13/M16 A3024 RMK AO1 SLP307
METAR CYNL 170100Z AUTO 29006KT 9SM OVC033 M13/M16 A3024 RMK AO1 SLP307
METAR CYNL 170000Z AUTO 28005KT 9SM OVC034 M14/M16 A3023 RMK AO1 SLP306
METAR CYNL 162300Z AUTO 28005KT 9SM OVC035 M14/M17 A3023 RMK AO1 SLP304
METAR CYNL 162200Z AUTO 27006KT 9SM OVC034 M14/M17 A3021 RMK AO1 SLP297
METAR CYNL 162100Z AUTO 28008KT 9SM OVC034 M14/M17 A3019 RMK AO1 SLP290
METAR CYNL 162000Z AUTO 30006KT 9SM OVC037 M14/M17 A3017 RMK AO1 PRESRR SLP283
METAR CYNL 161900Z AUTO 30008G16KT 9SM OVC043 M15/M18 A3015 RMK AO1 SLP275
METAR CYNL 161800Z AUTO 29006KT 9SM OVC043 M16/M18 A3013 RMK AO1 SLP269
METAR CYNL 161700Z AUTO ///// 9SM OVC039 M16/M19 A3012 RMK AO1 SLP264
METAR CYNL 161600Z AUTO ///// 9SM OVC037 M17/M20 A3010 RMK AO1 SLP259
SPECI CYNL 161522Z AUTO ///// 9SM SCT008 OVC036 M17/M20 A3009 RMK AO1 PRESRR SLP258
METAR CYNL 161500Z AUTO 30008KT 9SM BKN008 OVC010 M18/M20 A3008 RMK AO1 PRESRR SLP255
SPECI CYNL 161444Z AUTO ///// 9SM BKN009 OVC012 M18/M21 A3008 RMK AO1 SLP255
METAR CYNL 161400Z AUTO ///// 9SM FEW007 OVC012 M18/M21 A3006 RMK AO1 SLP250
SPECI CYNL 161351Z AUTO ///// 9SM SCT007 OVC012 M18/M21 A3006 RMK AO1 SLP250
SPECI CYNL 161308Z AUTO ///// 9SM SCT004 OVC006 M18/M21 A3005 RMK AO1 SLP246
METAR CYNL 161300Z AUTO ///// 7SM OVC004 M18/M21 A3005 RMK AO1 SLP245
SPECI CYNL 161235Z AUTO ///// 9SM OVC004 M19/M21 A3004 RMK AO1 PRESRR SLP244
METAR CYNL 161200Z AUTO ///// 9SM FEW006 OVC008 M19/M22 A3003 RMK AO1 PRESRR SLP240
METAR CYNL 161100Z AUTO ///// 9SM OVC007 M19/M22 A3001 RMK AO1 PRESRR SLP232
METAR CYNL 161000Z AUTO ///// 9SM OVC006 M18/M20 A2997 RMK AO1 PRESRR SLP217
METAR CYNL 160900Z AUTO ///// 9SM SCT007 BKN009 OVC039 M17/M20 A2995 RMK AO1 PRESRR SLP209
SPECI CYNL 160859Z AUTO ///// 9SM SCT007 BKN009 OVC039 M17/M20 A2995 RMK AO1 PRESRR SLP208
SPECI CYNL 160847Z AUTO 33005KT 9SM FEW009 OVC039 M17/M19 A2994 RMK AO1 PRESRR SLP205
METAR CYNL 160800Z AUTO 31006KT 9SM OVC041 M15/M18 A2992 RMK AO1 PRESRR SLP196
METAR CYNL 160700Z AUTO 30006KT 9SM OVC046 M14/M17 A2989 RMK AO1 SLP185
METAR CYNL 160600Z AUTO 30005KT 9SM FEW004 BKN050 OVC072 M14/M16 A2988 RMK AO1 SLP180
SPECI CYNL 160548Z AUTO 31005KT 9SM SCT004 BKN054 OVC072 M14/M16 A2988 RMK AO1 SLP183
SPECI CYNL 160545Z AUTO 30004KT 9SM SCT004 BKN021 OVC072 M14/M16 A2988 RMK AO1 SLP183
SPECI CYNL 160544Z AUTO 30004KT 9SM VV004 M14/M16 A2988 RMK AO1 SLP183
SPECI CYNL 160543Z AUTO 30004KT 9SM FEW004 SCT014 BKN021 M14/M16 A2988 RMK AO1 SLP183
SPECI CYNL 160503Z AUTO 29005KT 9SM FEW007 OVC072 M14/M16 A2987 RMK AO1 SLP180
METAR CYNL 160500Z AUTO 30005KT 9SM OVC072 M14/M16 A2987 RMK AO1 SLP179
METAR CYNL 160400Z AUTO 23003KT 8SM FEW007 BKN058 OVC074 M16/M18 A2986 RMK AO1 SLP182
SPECI CYNL 160323Z AUTO 23003KT 9SM SCT009 OVC074 M16/M19 A2985 RMK AO1 SLP185
SPECI CYNL 160315Z AUTO 25003KT 7SM VV009 M16/M19 A2985 RMK AO1 SLP184
SPECI CYNL 160306Z AUTO 25003KT 9SM VV010 M16/M19 A2985 RMK AO1 SLP185
METAR CYNL 160300Z AUTO 25004KT 9SM SCT007 OVC082 M16/M19 A2985 RMK AO1 SLP185
SPECI CYNL 160234Z AUTO 25004KT 9SM FEW006 OVC082 M16/M19 A2985 RMK AO1 SLP188
METAR CYNL 160200Z AUTO 24003KT 9SM OVC080 M16/M19 A2984 RMK AO1 SLP185
METAR CYNL 160100Z AUTO 23004KT 9SM OVC088 M17/M20 A2983 RMK AO1 SLP182
SPECI CYNL 160029Z AUTO 23003KT 9SM FEW007 SCT010 OVC090 M17/M19 A2983 RMK AO1 SLP180
SPECI CYNL 160023Z AUTO 23003KT 9SM FEW007 SCT010 BKN019 M17/M19 A2983 RMK AO1 SLP180
SPECI CYNL 160022Z AUTO 22003KT 9SM FEW007 SCT009 BKN011 M17/M19 A2983 RMK AO1 SLP179
SPECI CYNL 160017Z AUTO 23003KT 9SM VV009 M16/M19 A2983 RMK AO1 SLP179
SPECI CYNL 160011Z AUTO 23003KT 9SM VV011 M16/M19 A2983 RMK AO1 SLP179
METAR CYNL 160000Z AUTO 24002KT 9SM OVC018 M16/M19 A2983 RMK AO1 SLP178
METAR CYNL 152300Z AUTO 00000KT 9SM OVC017 M15/M18 A2982 RMK AO1 SLP174
METAR CYNL 152200Z AUTO 25003KT 9SM OVC018 M15/M18 A2981 RMK AO1 SLP167
METAR CYNL 152100Z AUTO 00000KT 9SM OVC019 M15/M18 A2979 RMK AO1 SLP158
METAR CYNL 152000Z AUTO 00000KT 9SM OVC018 M15/M19 A2979 RMK AO1 SLP153
SPECI CYNL 151915Z AUTO 09002KT 9SM BKN018 M15/M19 A2978 RMK AO1 SLP151
SPECI CYNL 151904Z AUTO 03004KT 9SM SCT018 M15/M19 A2978 RMK AO1 SLP151
METAR CYNL 151900Z AUTO 04004KT 9SM BKN018 M15/M19 A2978 RMK AO1 SLP151
METAR CYNL 151800Z AUTO 00000KT 9SM BKN019 M18/M22 A2978 RMK AO1 SLP155
SPECI CYNL 151750Z AUTO 00000KT 9SM BKN019 M17/M22 A2978 RMK AO1 SLP154
SPECI CYNL 151741Z AUTO 00000KT 9SM SCT019 M18/M22 A2978 RMK AO1 SLP154
SPECI CYNL 151735Z AUTO 00000KT 9SM BKN019 M18/M22 A2978 RMK AO1 SLP154
METAR CYNL 151700Z AUTO 00000KT 9SM FEW017 M20/M24 A2978 RMK AO1 SLP158
METAR CYNL 151600Z AUTO 00000KT 9SM CLR M24/M27 A2978 RMK AO1 SLP161
METAR CYNL 151500Z AUTO 29002KT 9SM CLR M28/M32 A2977 RMK AO1 SLP162
METAR CYNL 151400Z AUTO 29004KT 9SM CLR M28/M32 A2976 RMK AO1 SLP159
METAR CYNL 151300Z AUTO 29002KT 9SM CLR M26/M30 A2977 RMK AO1 SLP156
METAR CYNL 151200Z AUTO 32003KT 9SM CLR M25/M29 A2976 RMK AO1 SLP151
METAR CYNL 151100Z AUTO 28003KT 9SM CLR M23/M26 A2976 RMK AO1 SLP149
METAR CYNL 151000Z AUTO ///// 9SM CLR M20/M23 A2976 RMK AO1 SLP143
SPECI CYNL 150926Z AUTO ///// 9SM SCT022 M19/M22 A2976 RMK AO1 SLP140
METAR CYNL 150900Z AUTO ///// 9SM OVC021 M18/M21 A2975 RMK AO1 SLP139
METAR CYNL 150800Z AUTO 00000KT 9SM OVC024 M18/M21 A2975 RMK AO1 SLP135
SPECI CYNL 150754Z AUTO 30002KT 9SM OVC024 M18/M21 A2975 RMK AO1 SLP134
METAR CYNL 150700Z AUTO 33004KT 9SM OVC027 M18/M21 A2974 RMK AO1 SLP131
METAR CYNL 150600Z AUTO ///// 9SM OVC028 M17/M20 A2973 RMK AO1 SLP127
METAR CYNL 150500Z AUTO 33003KT 9SM OVC029 M17/M20 A2972 RMK AO1 SLP124
SPECI CYNL 150453Z AUTO 33004KT 9SM OVC029 M17/M20 A2972 RMK AO1 SLP124
SPECI CYNL 150425Z AUTO 34004KT 6SM OVC030 M16/M20 A2972 RMK AO1 SLP124
METAR CYNL 150400Z AUTO 35005KT 9SM OVC028 M16/M19 A2972 RMK AO1 SLP123
SPECI CYNL 150313Z AUTO 34004KT 9SM OVC029 M16/M19 A2972 RMK AO1 SLP122
METAR CYNL 150300Z AUTO 00004KT 9SM OVC030 M16/M19 A2972 RMK AO1 SLP122
METAR CYNL 150200Z AUTO 35004KT 9SM OVC031 M15/M18 A2970 RMK AO1 SLP117
SPECI CYNL 150129Z AUTO 35006KT 9SM OVC030 M15/M18 A2970 RMK AO1 SLP115
METAR CYNL 150100Z AUTO 34005KT 9SM OVC028 M15/M17 A2969 RMK AO1 SLP112
SPECI CYNL 150001Z AUTO 34004KT 9SM SCT011 BKN026 OVC033 M14/M17 A2967 RMK AO1 PRESRR SLP107
METAR CYNL 150000Z AUTO 34004KT 9SM SCT011 OVC033 M14/M17 A2967 RMK AO1 PRESRR SLP107
SPECI CYNL 142340Z AUTO 34004KT 9SM FEW012 SCT018 OVC035 M14/M17 A2966 RMK AO1 PRESRR SLP105
SPECI CYNL 142337Z AUTO 34004KT 9SM VV016 M14/M17 A2966 RMK AO1 PRESRR SLP104
SPECI CYNL 142306Z AUTO 34006KT 9SM FEW019 SCT024 OVC036 M14/M16 A2965 RMK AO1 PRESRR SLP098
SPECI CYNL 142301Z AUTO 34006KT 9SM FEW019 BKN024 BKN037 M14/M16 A2964 RMK AO1 PRESRR SLP097
METAR CYNL 142300Z AUTO 35006KT 9SM FEW019 BKN025 BKN037 M14/M16 A2964 RMK AO1 PRESRR SLP097
METAR CYNL 142200Z AUTO 34007KT 9SM SCT011 OVC029 M13/M15 A2962 RMK AO1 PRESRR SLP086
SPECI CYNL 142148Z AUTO 00005KT 9SM OVC029 M12/M15 A2961 RMK AO1 SLP084
SPECI CYNL 142101Z AUTO 35006KT 8SM VV030 M12/M15 A2959 RMK AO1 SLP077
METAR CYNL 142100Z AUTO 00005KT 7SM VV028 M12/M15 A2959 RMK AO1 SLP077
SPECI CYNL 142059Z AUTO 00005KT 7SM VV028 M12/M15 A2959 RMK AO1 SLP076
SPECI CYNL 142056Z AUTO 00008KT 3SM VV030 M12/M15 A2959 RMK AO1 PRESRR SLP075
SPECI CYNL 142052Z AUTO 00006KT 3SM VV027 M12/M15 A2959 RMK AO1 PRESRR SLP075
SPECI CYNL 142014Z AUTO 01008KT 9SM SCT013 OVC031 M12/M15 A2957 RMK AO1 PRESRR SLP070
METAR CYNL 142000Z AUTO 00005KT 9SM FEW006 BKN012 OVC032 M11/M14 A2957 RMK AO1 PRESRR SLP068
SPECI CYNL 141935Z AUTO 35007KT 4SM SCT006 BKN014 OVC038 M11/M14 A2955 RMK AO1 SLP065
SPECI CYNL 141933Z AUTO 01009KT 7SM SCT006 BKN015 OVC038 M11/M14 A2955 RMK AO1 SLP064
SPECI CYNL 141927Z AUTO 01009KT 7SM SCT006 BKN014 OVC037 M11/M14 A2955 RMK AO1 SLP063
METAR CYNL 141900Z AUTO 01008KT 9SM FEW006 BKN016 OVC034 M11/M14 A2954 RMK AO1 SLP058
SPECI CYNL 141825Z AUTO 01006KT 4SM FEW006 SCT011 BKN016 M10/M13 A2952 RMK AO1 PRESRR SLP054
SPECI CYNL 141821Z AUTO 01007KT 4SM FEW012 BKN016 OVC033 M10/M13 A2952 RMK AO1 PRESRR SLP054
SPECI CYNL 141814Z AUTO 01006KT 8SM SCT016 OVC032 M11/M13 A2952 RMK AO1 PRESRR SLP053
SPECI CYNL 141812Z AUTO 01007KT 6SM VV016 M11/M13 A2952 RMK AO1 PRESRR SLP053
METAR CYNL 141800Z AUTO 02009KT 6SM FEW015 OVC032 M11/M14 A2952 RMK AO1 PRESRR SLP053
SPECI CYNL 141744Z AUTO 02011KT 9SM SCT016 BKN031 OVC050 M11/M14 A2952 RMK AO1 PRESRR SLP052
SPECI CYNL 141728Z AUTO 03008KT 5SM BKN017 OVC050 M11/M14 A2951 RMK AO1 PRESRR SLP049
SPECI CYNL 141727Z AUTO 01008KT 1 1/2SM BKN017 OVC050 M11/M14 A2951 RMK AO1 PRESRR SLP049
SPECI CYNL 141726Z AUTO 01008KT 3/4SM BKN017 BKN026 OVC050 M11/M14 A2951 RMK AO1 PRESRR SLP049
SPECI CYNL 141725Z AUTO 02007KT 5/8SM BKN018 BKN026 OVC050 M11/M13 A2951 RMK AO1 PRESRR SLP049
SPECI CYNL 141724Z AUTO 02006KT 1 3/4SM BKN018 BKN026 OVC049 M11/M14 A2951 RMK AO1 PRESRR SLP048
METAR CYNL 141700Z AUTO 01007KT 4SM VV021 M11/M14 A2949 RMK AO1 PRESRR SLP045
SPECI CYNL 141643Z AUTO 03009KT 4SM VV017 M11/M14 A2949 RMK AO1 PRESRR SLP041
SPECI CYNL 141641Z AUTO 02008KT 2 1/2SM SCT015 BKN025 OVC047 M11/M14 A2949 RMK AO1 PRESRR SLP040
SPECI CYNL 141618Z AUTO 01007KT 8SM SCT016 OVC025 M11/M14 A2948 RMK AO1 PRESRR SLP037
METAR CYNL 141600Z AUTO 01006KT 5SM BKN017 BKN024 OVC029 M12/M14 A2947 RMK AO1 PRESRR SLP034
SPECI CYNL 141529Z AUTO 03006KT 6SM OVC015 M12/M14 A2945 RMK AO1 PRESRR SLP028
METAR CYNL 141500Z AUTO 03009KT 6SM OVC014 M12/M14 A2945 RMK AO1 PRESRR SLP026
SPECI CYNL 141412Z AUTO 02006KT 9SM BKN012 OVC022 M12/M15 A2942 RMK AO1 PRESRR SLP018
METAR CYNL 141400Z AUTO 03008KT 9SM FEW012 OVC022 M13/M15 A2942 RMK AO1 PRESRR SLP017
SPECI CYNL 141302Z AUTO 01007KT 9SM FEW012 BKN020 OVC043 M14/M16 A2939 RMK AO1 PRESRR SLP009
METAR CYNL 141300Z AUTO 01006KT 9SM FEW007 SCT012 OVC043 M14/M16 A2939 RMK AO1 PRESRR SLP009
SPECI CYNL 141255Z AUTO 01006KT 9SM FEW007 SCT012 OVC043 M14/M16 A2939 RMK AO1 PRESRR SLP007
SPECI CYNL 141243Z AUTO 01006KT 9SM SCT006 BKN012 OVC041 M14/M16 A2938 RMK AO1 PRESRR SLP004
SPECI CYNL 141211Z AUTO 00006KT 9SM OVC005 M14/M16 A2937 RMK AO1 PRESRR SLP001
METAR CYNL 141200Z AUTO 01006KT 9SM OVC004 M14/M16 A2936 RMK AO1 PRESRR SLP997
METAR CYNL 141100Z AUTO 02005KT 9SM OVC004 M14/M16 A2933 RMK AO1 PRESRR SLP986
METAR CYNL 141000Z AUTO 02006KT 9SM BKN003 BKN008 M15/M17 A2930 RMK AO1 SLP979
METAR CYNL 140900Z AUTO 02006KT 9SM BKN005 OVC088 M14/M16 A2929 RMK AO1 SLP970
SPECI CYNL 140854Z AUTO 01005KT 9SM BKN005 OVC088 M14/M17 A2928 RMK AO1 SLP970
SPECI CYNL 140843Z AUTO 35005KT 9SM FEW006 OVC088 M14/M17 A2928 RMK AO1 SLP969
METAR CYNL 140800Z AUTO 02005KT 9SM SCT092 M15/M18 A2927 RMK AO1 SLP965
METAR CYNL 140700Z AUTO 01003KT 9SM CLR M16/M18 A2925 RMK AO1 PRESRR SLP961
METAR CYNL 140600Z AUTO 05004KT 9SM FEW058 M15/M18 A2923 RMK AO1 SLP955
METAR CYNL 140500Z AUTO 03002KT 9SM CLR M14/M16 A2923 RMK AO1 SLP954